<?xml version='1.0' encoding='utf-8'?>
<gpx xmlns="http://www.topografix.com/GPX/1/1" xmlns:xsi="http://www.w3.org/2001/XMLSchema-instance" version="v1.1.5" creator="iTravel Tech Inc. - http://www.itravel-tech.com" xsi:schemaLocation="http://www.topografix.com/GPX/1/1 http://www.topografix.com/GPX/1/1/gpx.xsd http://www.topografix.com/GPX/gpx_overlay/0/3 http://www.topografix.com/GPX/gpx_overlay/0/3/gpx_overlay.xsd http://www.topografix.com/GPX/gpx_modified/0/1 http://www.topografix.com/GPX/gpx_modified/0/1/gpx_modified.xsd">
<trk>
<name>Holux2011/04/26_04:27</name>
<trkseg>
<trkpt lat="22.065081" lon="103.872223">
<ele>595.3</ele>
<time>2011-04-26T01:27:05Z</time>
<desc>lat.=22.065081, lon.=103.872223, Alt.=598.414551m. Speed=0.144000m/h.</desc>
<speed>0.040000</speed>
</trkpt>
<trkpt lat="22.065193" lon="103.872681">
<ele>596.3</ele>
<time>2011-04-26T01:40:00Z</time>
<desc>lat.=22.065193, lon.=103.872681, Alt.=596.336426m. Speed=10.332000m/h.</desc>
<speed>2.870000</speed>
</trkpt>
<trkpt lat="22.065157" lon="103.873962">
<ele>606.3</ele>
<time>2011-04-26T01:40:40Z</time>
<desc>lat.=22.065157, lon.=103.873962, Alt.=613.211426m. Speed=10.764000m/h.</desc>
<speed>2.990000</speed>
</trkpt>
<trkpt lat="22.065859" lon="103.874832">
<ele>612.9</ele>
<time>2011-04-26T01:41:15Z</time>
<desc>lat.=22.065859, lon.=103.874832, Alt.=625.117676m. Speed=12.924000m/h.</desc>
<speed>3.590000</speed>
</trkpt>
<trkpt lat="22.065544" lon="103.877586">
<ele>626.4</ele>
<time>2011-04-26T01:43:05Z</time>
<desc>lat.=22.065544, lon.=103.877586, Alt.=647.648926m. Speed=8.064000m/h.</desc>
<speed>2.240000</speed>
</trkpt>
<trkpt lat="22.066174" lon="103.886406">
<ele>680.1</ele>
<time>2011-04-26T01:51:30Z</time>
<desc>lat.=22.066174, lon.=103.886406, Alt.=669.961426m. Speed=5.976000m/h.</desc>
<speed>1.660000</speed>
</trkpt>
<trkpt lat="22.066654" lon="103.887917">
<ele>682.2</ele>
<time>2011-04-26T01:52:30Z</time>
<desc>lat.=22.066654, lon.=103.887917, Alt.=678.273926m. Speed=4.968000m/h.</desc>
<speed>1.380000</speed>
</trkpt>
<trkpt lat="22.066399" lon="103.888878">
<ele>693.2</ele>
<time>2011-04-26T01:53:35Z</time>
<desc>lat.=22.066399, lon.=103.888878, Alt.=688.195801m. Speed=5.184000m/h.</desc>
<speed>1.440000</speed>
</trkpt>
<trkpt lat="22.066536" lon="103.891312">
<ele>705.9</ele>
<time>2011-04-26T01:58:25Z</time>
<desc>lat.=22.066536, lon.=103.891312, Alt.=699.945801m. Speed=5.040000m/h.</desc>
<speed>1.400000</speed>
</trkpt>
<trkpt lat="22.066372" lon="103.892136">
<ele>707.6</ele>
<time>2011-04-26T01:59:15Z</time>
<desc>lat.=22.066372, lon.=103.892136, Alt.=704.992676m. Speed=11.628000m/h.</desc>
<speed>3.230000</speed>
</trkpt>
<trkpt lat="22.065985" lon="103.892807">
<ele>708.6</ele>
<time>2011-04-26T01:59:35Z</time>
<desc>lat.=22.065985, lon.=103.892807, Alt.=703.430176m. Speed=16.128000m/h.</desc>
<speed>4.480000</speed>
</trkpt>
<trkpt lat="22.063309" lon="103.895889">
<ele>724.7</ele>
<time>2011-04-26T02:04:10Z</time>
<desc>lat.=22.063309, lon.=103.895889, Alt.=719.914551m. Speed=11.772000m/h.</desc>
<speed>3.270000</speed>
</trkpt>
<trkpt lat="22.059763" lon="103.897949">
<ele>716.4</ele>
<time>2011-04-26T02:06:05Z</time>
<desc>lat.=22.059763, lon.=103.897949, Alt.=724.633301m. Speed=27.504000m/h.</desc>
<speed>7.640000</speed>
</trkpt>
<trkpt lat="22.059536" lon="103.898567">
<ele>714.8</ele>
<time>2011-04-26T02:06:15Z</time>
<desc>lat.=22.059536, lon.=103.898567, Alt.=725.117676m. Speed=23.940001m/h.</desc>
<speed>6.650000</speed>
</trkpt>
<trkpt lat="22.059540" lon="103.899490">
<ele>716.7</ele>
<time>2011-04-26T02:06:35Z</time>
<desc>lat.=22.059540, lon.=103.899490, Alt.=720.648926m. Speed=9.864000m/h.</desc>
<speed>2.740000</speed>
</trkpt>
<trkpt lat="22.059341" lon="103.899879">
<ele>719.2</ele>
<time>2011-04-26T02:06:45Z</time>
<desc>lat.=22.059341, lon.=103.899879, Alt.=721.180176m. Speed=20.879999m/h.</desc>
<speed>5.800000</speed>
</trkpt>
<trkpt lat="22.058613" lon="103.900215">
<ele>718.2</ele>
<time>2011-04-26T02:07:00Z</time>
<desc>lat.=22.058613, lon.=103.900215, Alt.=722.898926m. Speed=20.952000m/h.</desc>
<speed>5.820000</speed>
</trkpt>
<trkpt lat="22.057434" lon="103.899963">
<ele>717.5</ele>
<time>2011-04-26T02:07:20Z</time>
<desc>lat.=22.057434, lon.=103.899963, Alt.=724.320801m. Speed=22.356001m/h.</desc>
<speed>6.210000</speed>
</trkpt>
<trkpt lat="22.056889" lon="103.900032">
<ele>716.0</ele>
<time>2011-04-26T02:07:30Z</time>
<desc>lat.=22.056889, lon.=103.900032, Alt.=726.305176m. Speed=22.068001m/h.</desc>
<speed>6.130000</speed>
</trkpt>
<trkpt lat="22.056589" lon="103.900253">
<ele>713.1</ele>
<time>2011-04-26T02:07:35Z</time>
<desc>lat.=22.056589, lon.=103.900253, Alt.=727.430176m. Speed=30.672001m/h.</desc>
<speed>8.520000</speed>
</trkpt>
<trkpt lat="22.055519" lon="103.901657">
<ele>698.0</ele>
<time>2011-04-26T02:07:50Z</time>
<desc>lat.=22.055519, lon.=103.901657, Alt.=727.789551m. Speed=43.416000m/h.</desc>
<speed>12.060000</speed>
</trkpt>
<trkpt lat="22.054552" lon="103.903831">
<ele>684.9</ele>
<time>2011-04-26T02:08:10Z</time>
<desc>lat.=22.054552, lon.=103.903831, Alt.=728.836426m. Speed=39.743999m/h.</desc>
<speed>11.040000</speed>
</trkpt>
<trkpt lat="22.054203" lon="103.904182">
<ele>682.9</ele>
<time>2011-04-26T02:08:15Z</time>
<desc>lat.=22.054203, lon.=103.904182, Alt.=729.867676m. Speed=38.268002m/h.</desc>
<speed>10.630000</speed>
</trkpt>
<trkpt lat="22.053347" lon="103.904419">
<ele>676.7</ele>
<time>2011-04-26T02:08:25Z</time>
<desc>lat.=22.053347, lon.=103.904419, Alt.=731.352051m. Speed=31.104000m/h.</desc>
<speed>8.640000</speed>
</trkpt>
<trkpt lat="22.052711" lon="103.905106">
<ele>669.2</ele>
<time>2011-04-26T02:08:35Z</time>
<desc>lat.=22.052711, lon.=103.905106, Alt.=731.383301m. Speed=36.360001m/h.</desc>
<speed>10.100000</speed>
</trkpt>
<trkpt lat="22.052319" lon="103.906006">
<ele>665.4</ele>
<time>2011-04-26T02:08:45Z</time>
<desc>lat.=22.052319, lon.=103.906006, Alt.=721.602051m. Speed=39.240002m/h.</desc>
<speed>10.900000</speed>
</trkpt>
<trkpt lat="22.052179" lon="103.907028">
<ele>663.3</ele>
<time>2011-04-26T02:08:55Z</time>
<desc>lat.=22.052179, lon.=103.907028, Alt.=715.102051m. Speed=35.279999m/h.</desc>
<speed>9.800000</speed>
</trkpt>
<trkpt lat="22.050606" lon="103.909195">
<ele>664.5</ele>
<time>2011-04-26T02:09:35Z</time>
<desc>lat.=22.050606, lon.=103.909195, Alt.=710.961426m. Speed=25.775999m/h.</desc>
<speed>7.160000</speed>
</trkpt>
<trkpt lat="22.048147" lon="103.910301">
<ele>645.2</ele>
<time>2011-04-26T02:10:20Z</time>
<desc>lat.=22.048147, lon.=103.910301, Alt.=674.148926m. Speed=38.771999m/h.</desc>
<speed>10.770000</speed>
</trkpt>
<trkpt lat="22.046751" lon="103.911385">
<ele>630.9</ele>
<time>2011-04-26T02:10:35Z</time>
<desc>lat.=22.046751, lon.=103.911385, Alt.=654.336426m. Speed=47.952000m/h.</desc>
<speed>13.320000</speed>
</trkpt>
<trkpt lat="22.043367" lon="103.914566">
<ele>614.8</ele>
<time>2011-04-26T02:11:15Z</time>
<desc>lat.=22.043367, lon.=103.914566, Alt.=617.805176m. Speed=37.439999m/h.</desc>
<speed>10.400000</speed>
</trkpt>
<trkpt lat="22.036947" lon="103.916527">
<ele>593.5</ele>
<time>2011-04-26T02:12:30Z</time>
<desc>lat.=22.036947, lon.=103.916527, Alt.=591.523926m. Speed=23.688000m/h.</desc>
<speed>6.580000</speed>
</trkpt>
<trkpt lat="22.036413" lon="103.916443">
<ele>592.8</ele>
<time>2011-04-26T02:12:40Z</time>
<desc>lat.=22.036413, lon.=103.916443, Alt.=594.477051m. Speed=20.448000m/h.</desc>
<speed>5.680000</speed>
</trkpt>
<trkpt lat="22.031965" lon="103.914787">
<ele>584.8</ele>
<time>2011-04-26T02:14:25Z</time>
<desc>lat.=22.031965, lon.=103.914787, Alt.=591.930176m. Speed=4.968000m/h.</desc>
<speed>1.380000</speed>
</trkpt>
<trkpt lat="22.030701" lon="103.913635">
<ele>577.3</ele>
<time>2011-04-26T02:15:00Z</time>
<desc>lat.=22.030701, lon.=103.913635, Alt.=581.117676m. Speed=36.396000m/h.</desc>
<speed>10.110000</speed>
</trkpt>
<trkpt lat="22.030319" lon="103.913445">
<ele>575.4</ele>
<time>2011-04-26T02:15:05Z</time>
<desc>lat.=22.030319, lon.=103.913445, Alt.=578.555176m. Speed=33.948002m/h.</desc>
<speed>9.430001</speed>
</trkpt>
<trkpt lat="22.029329" lon="103.913338">
<ele>570.0</ele>
<time>2011-04-26T02:15:15Z</time>
<desc>lat.=22.029329, lon.=103.913338, Alt.=572.117676m. Speed=43.848000m/h.</desc>
<speed>12.180000</speed>
</trkpt>
<trkpt lat="22.028763" lon="103.913399">
<ele>567.3</ele>
<time>2011-04-26T02:15:20Z</time>
<desc>lat.=22.028763, lon.=103.913399, Alt.=568.758301m. Speed=44.495998m/h.</desc>
<speed>12.360000</speed>
</trkpt>
<trkpt lat="22.026163" lon="103.914833">
<ele>563.0</ele>
<time>2011-04-26T02:15:50Z</time>
<desc>lat.=22.026163, lon.=103.914833, Alt.=553.883301m. Speed=32.543999m/h.</desc>
<speed>9.040000</speed>
</trkpt>
<trkpt lat="22.025349" lon="103.914749">
<ele>561.0</ele>
<time>2011-04-26T02:16:00Z</time>
<desc>lat.=22.025349, lon.=103.914749, Alt.=551.102051m. Speed=33.515999m/h.</desc>
<speed>9.310000</speed>
</trkpt>
<trkpt lat="22.023769" lon="103.914223">
<ele>554.2</ele>
<time>2011-04-26T02:16:20Z</time>
<desc>lat.=22.023769, lon.=103.914223, Alt.=547.211426m. Speed=34.956001m/h.</desc>
<speed>9.710000</speed>
</trkpt>
<trkpt lat="22.022949" lon="103.914406">
<ele>553.8</ele>
<time>2011-04-26T02:16:30Z</time>
<desc>lat.=22.022949, lon.=103.914406, Alt.=544.461426m. Speed=29.556000m/h.</desc>
<speed>8.210000</speed>
</trkpt>
<trkpt lat="22.021696" lon="103.915054">
<ele>559.5</ele>
<time>2011-04-26T02:16:50Z</time>
<desc>lat.=22.021696, lon.=103.915054, Alt.=544.945801m. Speed=24.120001m/h.</desc>
<speed>6.700000</speed>
</trkpt>
<trkpt lat="22.020351" lon="103.915001">
<ele>560.6</ele>
<time>2011-04-26T02:17:25Z</time>
<desc>lat.=22.020351, lon.=103.915001, Alt.=538.773926m. Speed=10.836000m/h.</desc>
<speed>3.010000</speed>
</trkpt>
<trkpt lat="22.017134" lon="103.914505">
<ele>563.3</ele>
<time>2011-04-26T02:18:45Z</time>
<desc>lat.=22.017134, lon.=103.914505, Alt.=552.320801m. Speed=14.868000m/h.</desc>
<speed>4.130000</speed>
</trkpt>
<trkpt lat="22.016788" lon="103.914528">
<ele>564.2</ele>
<time>2011-04-26T02:18:55Z</time>
<desc>lat.=22.016788, lon.=103.914528, Alt.=547.523926m. Speed=14.256000m/h.</desc>
<speed>3.960000</speed>
</trkpt>
<trkpt lat="22.016390" lon="103.914948">
<ele>564.2</ele>
<time>2011-04-26T02:19:20Z</time>
<desc>lat.=22.016390, lon.=103.914948, Alt.=545.961426m. Speed=7.416000m/h.</desc>
<speed>2.060000</speed>
</trkpt>
<trkpt lat="22.016178" lon="103.917053">
<ele>570.1</ele>
<time>2011-04-26T02:20:45Z</time>
<desc>lat.=22.016178, lon.=103.917053, Alt.=565.586426m. Speed=9.252000m/h.</desc>
<speed>2.570000</speed>
</trkpt>
<trkpt lat="22.016689" lon="103.919861">
<ele>580.8</ele>
<time>2011-04-26T02:22:55Z</time>
<desc>lat.=22.016689, lon.=103.919861, Alt.=574.914551m. Speed=6.264000m/h.</desc>
<speed>1.740000</speed>
</trkpt>
<trkpt lat="22.016970" lon="103.920525">
<ele>583.1</ele>
<time>2011-04-26T02:23:35Z</time>
<desc>lat.=22.016970, lon.=103.920525, Alt.=579.070801m. Speed=4.788000m/h.</desc>
<speed>1.330000</speed>
</trkpt>
<trkpt lat="22.018038" lon="103.921600">
<ele>587.4</ele>
<time>2011-04-26T02:25:10Z</time>
<desc>lat.=22.018038, lon.=103.921600, Alt.=597.977051m. Speed=5.364000m/h.</desc>
<speed>1.490000</speed>
</trkpt>
<trkpt lat="22.018438" lon="103.922997">
<ele>594.0</ele>
<time>2011-04-26T02:26:40Z</time>
<desc>lat.=22.018438, lon.=103.922997, Alt.=600.961426m. Speed=6.372000m/h.</desc>
<speed>1.770000</speed>
</trkpt>
<trkpt lat="22.019817" lon="103.925720">
<ele>602.7</ele>
<time>2011-04-26T02:33:45Z</time>
<desc>lat.=22.019817, lon.=103.925720, Alt.=601.180176m. Speed=9.252000m/h.</desc>
<speed>2.570000</speed>
</trkpt>
<trkpt lat="22.020163" lon="103.926750">
<ele>611.9</ele>
<time>2011-04-26T02:34:40Z</time>
<desc>lat.=22.020163, lon.=103.926750, Alt.=599.055176m. Speed=5.508000m/h.</desc>
<speed>1.530000</speed>
</trkpt>
<trkpt lat="22.021456" lon="103.928802">
<ele>624.4</ele>
<time>2011-04-26T02:36:40Z</time>
<desc>lat.=22.021456, lon.=103.928802, Alt.=611.445801m. Speed=6.192000m/h.</desc>
<speed>1.720000</speed>
</trkpt>
<trkpt lat="22.022148" lon="103.932762">
<ele>645.1</ele>
<time>2011-04-26T02:41:50Z</time>
<desc>lat.=22.022148, lon.=103.932762, Alt.=631.258301m. Speed=4.392000m/h.</desc>
<speed>1.220000</speed>
</trkpt>
<trkpt lat="22.022423" lon="103.933334">
<ele>645.8</ele>
<time>2011-04-26T02:42:15Z</time>
<desc>lat.=22.022423, lon.=103.933334, Alt.=636.273926m. Speed=8.172000m/h.</desc>
<speed>2.270000</speed>
</trkpt>
<trkpt lat="22.023064" lon="103.933815">
<ele>656.0</ele>
<time>2011-04-26T02:42:55Z</time>
<desc>lat.=22.023064, lon.=103.933815, Alt.=643.133301m. Speed=7.848000m/h.</desc>
<speed>2.180000</speed>
</trkpt>
<trkpt lat="22.024199" lon="103.933105">
<ele>656.5</ele>
<time>2011-04-26T02:43:45Z</time>
<desc>lat.=22.024199, lon.=103.933105, Alt.=645.617676m. Speed=10.332000m/h.</desc>
<speed>2.870000</speed>
</trkpt>
<trkpt lat="22.024574" lon="103.933037">
<ele>659.8</ele>
<time>2011-04-26T02:44:00Z</time>
<desc>lat.=22.024574, lon.=103.933037, Alt.=647.461426m. Speed=9.612000m/h.</desc>
<speed>2.670000</speed>
</trkpt>
<trkpt lat="22.025223" lon="103.933296">
<ele>661.6</ele>
<time>2011-04-26T02:44:35Z</time>
<desc>lat.=22.025223, lon.=103.933296, Alt.=650.758301m. Speed=7.488000m/h.</desc>
<speed>2.080000</speed>
</trkpt>
<trkpt lat="22.026140" lon="103.934273">
<ele>664.7</ele>
<time>2011-04-26T02:45:35Z</time>
<desc>lat.=22.026140, lon.=103.934273, Alt.=661.539551m. Speed=9.684000m/h.</desc>
<speed>2.690000</speed>
</trkpt>
<trkpt lat="22.027538" lon="103.934265">
<ele>678.9</ele>
<time>2011-04-26T02:47:10Z</time>
<desc>lat.=22.027538, lon.=103.934265, Alt.=669.773926m. Speed=0.324000m/h.</desc>
<speed>0.090000</speed>
</trkpt>
<trkpt lat="22.027782" lon="103.935112">
<ele>684.1</ele>
<time>2011-04-26T02:50:45Z</time>
<desc>lat.=22.027782, lon.=103.935112, Alt.=677.758301m. Speed=6.300000m/h.</desc>
<speed>1.750000</speed>
</trkpt>
<trkpt lat="22.027958" lon="103.935257">
<ele>685.0</ele>
<time>2011-04-26T02:50:55Z</time>
<desc>lat.=22.027958, lon.=103.935257, Alt.=677.461426m. Speed=9.144000m/h.</desc>
<speed>2.540000</speed>
</trkpt>
<trkpt lat="22.029629" lon="103.934959">
<ele>686.9</ele>
<time>2011-04-26T02:52:10Z</time>
<desc>lat.=22.029629, lon.=103.934959, Alt.=675.398926m. Speed=6.264000m/h.</desc>
<speed>1.740000</speed>
</trkpt>
<trkpt lat="22.030018" lon="103.935089">
<ele>688.6</ele>
<time>2011-04-26T02:52:25Z</time>
<desc>lat.=22.030018, lon.=103.935089, Alt.=680.023926m. Speed=9.324000m/h.</desc>
<speed>2.590000</speed>
</trkpt>
<trkpt lat="22.030531" lon="103.936501">
<ele>705.4</ele>
<time>2011-04-26T02:53:45Z</time>
<desc>lat.=22.030531, lon.=103.936501, Alt.=685.680176m. Speed=5.832000m/h.</desc>
<speed>1.620000</speed>
</trkpt>
<trkpt lat="22.031578" lon="103.937088">
<ele>710.0</ele>
<time>2011-04-26T02:54:55Z</time>
<desc>lat.=22.031578, lon.=103.937088, Alt.=696.836426m. Speed=5.688000m/h.</desc>
<speed>1.580000</speed>
</trkpt>
<trkpt lat="22.031569" lon="103.938354">
<ele>715.6</ele>
<time>2011-04-26T02:56:05Z</time>
<desc>lat.=22.031569, lon.=103.938354, Alt.=717.664551m. Speed=4.968000m/h.</desc>
<speed>1.380000</speed>
</trkpt>
<trkpt lat="22.031189" lon="103.939468">
<ele>733.5</ele>
<time>2011-04-26T02:57:10Z</time>
<desc>lat.=22.031189, lon.=103.939468, Alt.=731.555176m. Speed=4.608000m/h.</desc>
<speed>1.280000</speed>
</trkpt>
<trkpt lat="22.031292" lon="103.939735">
<ele>728.5</ele>
<time>2011-04-26T02:57:35Z</time>
<desc>lat.=22.031292, lon.=103.939735, Alt.=734.711426m. Speed=0.828000m/h.</desc>
<speed>0.230000</speed>
</trkpt>
<trkpt lat="22.031221" lon="103.939674">
<ele>732.6</ele>
<time>2011-04-26T02:58:35Z</time>
<desc>lat.=22.031221, lon.=103.939674, Alt.=733.586426m. Speed=0.288000m/h.</desc>
<speed>0.080000</speed>
</trkpt>
<trkpt lat="22.031389" lon="103.939621">
<ele>723.8</ele>
<time>2011-04-26T02:59:00Z</time>
<desc>lat.=22.031389, lon.=103.939621, Alt.=730.773926m. Speed=1.872000m/h.</desc>
<speed>0.520000</speed>
</trkpt>
<trkpt lat="22.031315" lon="103.939682">
<ele>727.3</ele>
<time>2011-04-26T02:59:25Z</time>
<desc>lat.=22.031315, lon.=103.939682, Alt.=729.336426m. Speed=0.216000m/h.</desc>
<speed>0.060000</speed>
</trkpt>
<trkpt lat="22.031731" lon="103.939743">
<ele>727.6</ele>
<time>2011-04-26T03:00:15Z</time>
<desc>lat.=22.031731, lon.=103.939743, Alt.=724.977051m. Speed=1.368000m/h.</desc>
<speed>0.380000</speed>
</trkpt>
<trkpt lat="22.031164" lon="103.939850">
<ele>738.3</ele>
<time>2011-04-26T03:01:15Z</time>
<desc>lat.=22.031164, lon.=103.939850, Alt.=717.758301m. Speed=1.404000m/h.</desc>
<speed>0.390000</speed>
</trkpt>
<trkpt lat="22.031517" lon="103.939873">
<ele>720.3</ele>
<time>2011-04-26T03:01:40Z</time>
<desc>lat.=22.031517, lon.=103.939873, Alt.=718.508301m. Speed=4.716000m/h.</desc>
<speed>1.310000</speed>
</trkpt>
<trkpt lat="22.032562" lon="103.939400">
<ele>740.7</ele>
<time>2011-04-26T03:02:35Z</time>
<desc>lat.=22.032562, lon.=103.939400, Alt.=734.633301m. Speed=9.072000m/h.</desc>
<speed>2.520000</speed>
</trkpt>
<trkpt lat="22.033655" lon="103.939873">
<ele>733.0</ele>
<time>2011-04-26T03:03:30Z</time>
<desc>lat.=22.033655, lon.=103.939873, Alt.=734.477051m. Speed=6.588000m/h.</desc>
<speed>1.830000</speed>
</trkpt>
<trkpt lat="22.033873" lon="103.939667">
<ele>732.8</ele>
<time>2011-04-26T03:03:50Z</time>
<desc>lat.=22.033873, lon.=103.939667, Alt.=734.727051m. Speed=4.536000m/h.</desc>
<speed>1.260000</speed>
</trkpt>
<trkpt lat="22.033983" lon="103.939102">
<ele>737.7</ele>
<time>2011-04-26T03:04:25Z</time>
<desc>lat.=22.033983, lon.=103.939102, Alt.=734.711426m. Speed=5.112000m/h.</desc>
<speed>1.420000</speed>
</trkpt>
<trkpt lat="22.034920" lon="103.939262">
<ele>761.9</ele>
<time>2011-04-26T03:05:25Z</time>
<desc>lat.=22.034920, lon.=103.939262, Alt.=735.852051m. Speed=5.724000m/h.</desc>
<speed>1.590000</speed>
</trkpt>
<trkpt lat="22.035887" lon="103.939026">
<ele>764.4</ele>
<time>2011-04-26T03:06:45Z</time>
<desc>lat.=22.035887, lon.=103.939026, Alt.=756.930176m. Speed=3.348000m/h.</desc>
<speed>0.930000</speed>
</trkpt>
<trkpt lat="22.036964" lon="103.939194">
<ele>776.6</ele>
<time>2011-04-26T03:08:45Z</time>
<desc>lat.=22.036964, lon.=103.939194, Alt.=763.789551m. Speed=5.688000m/h.</desc>
<speed>1.580000</speed>
</trkpt>
<trkpt lat="22.037260" lon="103.940674">
<ele>790.4</ele>
<time>2011-04-26T03:10:25Z</time>
<desc>lat.=22.037260, lon.=103.940674, Alt.=793.758301m. Speed=4.284000m/h.</desc>
<speed>1.190000</speed>
</trkpt>
<trkpt lat="22.037985" lon="103.941360">
<ele>794.8</ele>
<time>2011-04-26T03:11:40Z</time>
<desc>lat.=22.037985, lon.=103.941360, Alt.=785.914551m. Speed=3.852000m/h.</desc>
<speed>1.070000</speed>
</trkpt>
<trkpt lat="22.037956" lon="103.941895">
<ele>799.6</ele>
<time>2011-04-26T03:12:25Z</time>
<desc>lat.=22.037956, lon.=103.941895, Alt.=787.555176m. Speed=3.564000m/h.</desc>
<speed>0.990000</speed>
</trkpt>
<trkpt lat="22.038300" lon="103.942535">
<ele>811.5</ele>
<time>2011-04-26T03:13:10Z</time>
<desc>lat.=22.038300, lon.=103.942535, Alt.=790.008301m. Speed=3.924000m/h.</desc>
<speed>1.090000</speed>
</trkpt>
<trkpt lat="22.038231" lon="103.943230">
<ele>823.1</ele>
<time>2011-04-26T03:14:00Z</time>
<desc>lat.=22.038231, lon.=103.943230, Alt.=794.383301m. Speed=5.004000m/h.</desc>
<speed>1.390000</speed>
</trkpt>
<trkpt lat="22.038340" lon="103.943756">
<ele>809.8</ele>
<time>2011-04-26T03:14:40Z</time>
<desc>lat.=22.038340, lon.=103.943756, Alt.=800.883301m. Speed=3.312000m/h.</desc>
<speed>0.920000</speed>
</trkpt>
<trkpt lat="22.037477" lon="103.944771">
<ele>839.5</ele>
<time>2011-04-26T03:17:45Z</time>
<desc>lat.=22.037477, lon.=103.944771, Alt.=811.102051m. Speed=6.372000m/h.</desc>
<speed>1.770000</speed>
</trkpt>
<trkpt lat="22.037270" lon="103.945969">
<ele>834.3</ele>
<time>2011-04-26T03:18:55Z</time>
<desc>lat.=22.037270, lon.=103.945969, Alt.=816.102051m. Speed=5.076000m/h.</desc>
<speed>1.410000</speed>
</trkpt>
<trkpt lat="22.036287" lon="103.947273">
<ele>859.4</ele>
<time>2011-04-26T03:20:25Z</time>
<desc>lat.=22.036287, lon.=103.947273, Alt.=823.117676m. Speed=5.940000m/h.</desc>
<speed>1.650000</speed>
</trkpt>
<trkpt lat="22.036234" lon="103.947571">
<ele>848.7</ele>
<time>2011-04-26T03:20:45Z</time>
<desc>lat.=22.036234, lon.=103.947571, Alt.=822.227051m. Speed=2.916000m/h.</desc>
<speed>0.810000</speed>
</trkpt>
<trkpt lat="22.036371" lon="103.947845">
<ele>853.2</ele>
<time>2011-04-26T03:21:20Z</time>
<desc>lat.=22.036371, lon.=103.947845, Alt.=824.758301m. Speed=0.864000m/h.</desc>
<speed>0.240000</speed>
</trkpt>
<trkpt lat="22.036551" lon="103.947876">
<ele>853.2</ele>
<time>2011-04-26T03:23:45Z</time>
<desc>lat.=22.036551, lon.=103.947876, Alt.=835.086426m. Speed=0.396000m/h.</desc>
<speed>0.110000</speed>
</trkpt>
<trkpt lat="22.036619" lon="103.947563">
<ele>839.9</ele>
<time>2011-04-26T03:32:50Z</time>
<desc>lat.=22.036619, lon.=103.947563, Alt.=860.945801m. Speed=1.260000m/h.</desc>
<speed>0.350000</speed>
</trkpt>
<trkpt lat="22.036503" lon="103.947891">
<ele>854.3</ele>
<time>2011-04-26T03:35:00Z</time>
<desc>lat.=22.036503, lon.=103.947891, Alt.=834.758301m. Speed=1.728000m/h.</desc>
<speed>0.480000</speed>
</trkpt>
<trkpt lat="22.037399" lon="103.948265">
<ele>872.3</ele>
<time>2011-04-26T03:36:10Z</time>
<desc>lat.=22.037399, lon.=103.948265, Alt.=839.023926m. Speed=5.796000m/h.</desc>
<speed>1.610000</speed>
</trkpt>
<trkpt lat="22.038513" lon="103.947960">
<ele>877.6</ele>
<time>2011-04-26T03:37:10Z</time>
<desc>lat.=22.038513, lon.=103.947960, Alt.=851.742676m. Speed=3.744000m/h.</desc>
<speed>1.040000</speed>
</trkpt>
<trkpt lat="22.039278" lon="103.947136">
<ele>869.5</ele>
<time>2011-04-26T03:38:10Z</time>
<desc>lat.=22.039278, lon.=103.947136, Alt.=868.852051m. Speed=4.284000m/h.</desc>
<speed>1.190000</speed>
</trkpt>
<trkpt lat="22.039570" lon="103.947113">
<ele>877.0</ele>
<time>2011-04-26T03:38:30Z</time>
<desc>lat.=22.039570, lon.=103.947113, Alt.=870.461426m. Speed=5.688000m/h.</desc>
<speed>1.580000</speed>
</trkpt>
<trkpt lat="22.040102" lon="103.948639">
<ele>902.9</ele>
<time>2011-04-26T03:40:25Z</time>
<desc>lat.=22.040102, lon.=103.948639, Alt.=882.727051m. Speed=6.120000m/h.</desc>
<speed>1.700000</speed>
</trkpt>
<trkpt lat="22.039959" lon="103.949020">
<ele>891.5</ele>
<time>2011-04-26T03:40:50Z</time>
<desc>lat.=22.039959, lon.=103.949020, Alt.=890.992676m. Speed=6.732000m/h.</desc>
<speed>1.870000</speed>
</trkpt>
<trkpt lat="22.039442" lon="103.949226">
<ele>921.0</ele>
<time>2011-04-26T03:41:25Z</time>
<desc>lat.=22.039442, lon.=103.949226, Alt.=897.789551m. Speed=4.680000m/h.</desc>
<speed>1.300000</speed>
</trkpt>
<trkpt lat="22.039324" lon="103.949661">
<ele>944.7</ele>
<time>2011-04-26T03:41:50Z</time>
<desc>lat.=22.039324, lon.=103.949661, Alt.=898.398926m. Speed=5.364000m/h.</desc>
<speed>1.490000</speed>
</trkpt>
<trkpt lat="22.039663" lon="103.950760">
<ele>928.9</ele>
<time>2011-04-26T03:43:05Z</time>
<desc>lat.=22.039663, lon.=103.950760, Alt.=899.117676m. Speed=2.412000m/h.</desc>
<speed>0.670000</speed>
</trkpt>
<trkpt lat="22.039642" lon="103.951973">
<ele>947.9</ele>
<time>2011-04-26T03:44:30Z</time>
<desc>lat.=22.039642, lon.=103.951973, Alt.=918.273926m. Speed=5.292000m/h.</desc>
<speed>1.470000</speed>
</trkpt>
<trkpt lat="22.040026" lon="103.952461">
<ele>965.6</ele>
<time>2011-04-26T03:45:05Z</time>
<desc>lat.=22.040026, lon.=103.952461, Alt.=923.117676m. Speed=6.228000m/h.</desc>
<speed>1.730000</speed>
</trkpt>
<trkpt lat="22.040474" lon="103.952682">
<ele>949.9</ele>
<time>2011-04-26T03:45:30Z</time>
<desc>lat.=22.040474, lon.=103.952682, Alt.=926.227051m. Speed=6.048000m/h.</desc>
<speed>1.680000</speed>
</trkpt>
<trkpt lat="22.040535" lon="103.953194">
<ele>981.4</ele>
<time>2011-04-26T03:46:05Z</time>
<desc>lat.=22.040535, lon.=103.953194, Alt.=928.992676m. Speed=3.816000m/h.</desc>
<speed>1.060000</speed>
</trkpt>
<trkpt lat="22.041075" lon="103.953949">
<ele>1001.3</ele>
<time>2011-04-26T03:47:00Z</time>
<desc>lat.=22.041075, lon.=103.953949, Alt.=932.227051m. Speed=3.384000m/h.</desc>
<speed>0.940000</speed>
</trkpt>
<trkpt lat="22.042112" lon="103.954361">
<ele>987.9</ele>
<time>2011-04-26T03:48:15Z</time>
<desc>lat.=22.042112, lon.=103.954361, Alt.=937.930176m. Speed=4.464000m/h.</desc>
<speed>1.240000</speed>
</trkpt>
<trkpt lat="22.042599" lon="103.954315">
<ele>964.1</ele>
<time>2011-04-26T03:48:55Z</time>
<desc>lat.=22.042599, lon.=103.954315, Alt.=940.227051m. Speed=4.968000m/h.</desc>
<speed>1.380000</speed>
</trkpt>
<trkpt lat="22.042662" lon="103.955040">
<ele>994.8</ele>
<time>2011-04-26T03:50:45Z</time>
<desc>lat.=22.042662, lon.=103.955040, Alt.=962.258301m. Speed=2.016000m/h.</desc>
<speed>0.560000</speed>
</trkpt>
<trkpt lat="22.042789" lon="103.955040">
<ele>984.6</ele>
<time>2011-04-26T03:51:00Z</time>
<desc>lat.=22.042789, lon.=103.955040, Alt.=963.789551m. Speed=1.980000m/h.</desc>
<speed>0.550000</speed>
</trkpt>
<trkpt lat="22.042850" lon="103.955330">
<ele>993.5</ele>
<time>2011-04-26T03:51:30Z</time>
<desc>lat.=22.042850, lon.=103.955330, Alt.=969.320801m. Speed=3.636000m/h.</desc>
<speed>1.010000</speed>
</trkpt>
<trkpt lat="22.044073" lon="103.955772">
<ele>1016.2</ele>
<time>2011-04-26T03:53:05Z</time>
<desc>lat.=22.044073, lon.=103.955772, Alt.=989.539551m. Speed=3.096000m/h.</desc>
<speed>0.860000</speed>
</trkpt>
<trkpt lat="22.044933" lon="103.955177">
<ele>1004.3</ele>
<time>2011-04-26T03:54:15Z</time>
<desc>lat.=22.044933, lon.=103.955177, Alt.=993.180176m. Speed=4.752000m/h.</desc>
<speed>1.320000</speed>
</trkpt>
<trkpt lat="22.045166" lon="103.954887">
<ele>997.6</ele>
<time>2011-04-26T03:54:35Z</time>
<desc>lat.=22.045166, lon.=103.954887, Alt.=993.211426m. Speed=6.588000m/h.</desc>
<speed>1.830000</speed>
</trkpt>
<trkpt lat="22.044977" lon="103.954544">
<ele>997.0</ele>
<time>2011-04-26T03:55:45Z</time>
<desc>lat.=22.044977, lon.=103.954544, Alt.=990.398926m. Speed=2.160000m/h.</desc>
<speed>0.600000</speed>
</trkpt>
<trkpt lat="22.044910" lon="103.953850">
<ele>1000.3</ele>
<time>2011-04-26T03:56:50Z</time>
<desc>lat.=22.044910, lon.=103.953850, Alt.=987.305176m. Speed=4.320000m/h.</desc>
<speed>1.200000</speed>
</trkpt>
<trkpt lat="22.045279" lon="103.952728">
<ele>1012.8</ele>
<time>2011-04-26T03:58:50Z</time>
<desc>lat.=22.045279, lon.=103.952728, Alt.=990.336426m. Speed=4.104000m/h.</desc>
<speed>1.140000</speed>
</trkpt>
<trkpt lat="22.045582" lon="103.952263">
<ele>1030.9</ele>
<time>2011-04-26T03:59:25Z</time>
<desc>lat.=22.045582, lon.=103.952263, Alt.=987.195801m. Speed=3.852000m/h.</desc>
<speed>1.070000</speed>
</trkpt>
<trkpt lat="22.046053" lon="103.952049">
<ele>1038.5</ele>
<time>2011-04-26T04:00:30Z</time>
<desc>lat.=22.046053, lon.=103.952049, Alt.=989.289551m. Speed=4.968000m/h.</desc>
<speed>1.380000</speed>
</trkpt>
<trkpt lat="22.046499" lon="103.952354">
<ele>1048.5</ele>
<time>2011-04-26T04:01:10Z</time>
<desc>lat.=22.046499, lon.=103.952354, Alt.=993.523926m. Speed=5.508000m/h.</desc>
<speed>1.530000</speed>
</trkpt>
<trkpt lat="22.046614" lon="103.952980">
<ele>1041.3</ele>
<time>2011-04-26T04:14:55Z</time>
<desc>lat.=22.046614, lon.=103.952980, Alt.=1022.539551m. Speed=0.000000m/h.</desc>
<speed>0.000000</speed>
</trkpt>
<trkpt lat="22.045965" lon="103.954239">
<ele>1038.4</ele>
<time>2011-04-26T04:23:20Z</time>
<desc>lat.=22.045965, lon.=103.954239, Alt.=1032.360352m. Speed=10.440000m/h.</desc>
<speed>2.900000</speed>
</trkpt>
<trkpt lat="22.046053" lon="103.955231">
<ele>1038.2</ele>
<time>2011-04-26T04:23:50Z</time>
<desc>lat.=22.046053, lon.=103.955231, Alt.=1032.079102m. Speed=7.740000m/h.</desc>
<speed>2.150000</speed>
</trkpt>
<trkpt lat="22.045914" lon="103.955360">
<ele>1036.9</ele>
<time>2011-04-26T04:24:00Z</time>
<desc>lat.=22.045914, lon.=103.955360, Alt.=1033.985352m. Speed=8.676000m/h.</desc>
<speed>2.410000</speed>
</trkpt>
<trkpt lat="22.045259" lon="103.955254">
<ele>1016.7</ele>
<time>2011-04-26T04:26:15Z</time>
<desc>lat.=22.045259, lon.=103.955254, Alt.=1034.516602m. Speed=0.504000m/h.</desc>
<speed>0.140000</speed>
</trkpt>
<trkpt lat="22.044970" lon="103.955406">
<ele>1016.6</ele>
<time>2011-04-26T04:28:25Z</time>
<desc>lat.=22.044970, lon.=103.955406, Alt.=1034.297852m. Speed=0.828000m/h.</desc>
<speed>0.230000</speed>
</trkpt>
<trkpt lat="22.044657" lon="103.956902">
<ele>1025.8</ele>
<time>2011-04-26T04:29:00Z</time>
<desc>lat.=22.044657, lon.=103.956902, Alt.=1029.079102m. Speed=21.059999m/h.</desc>
<speed>5.850000</speed>
</trkpt>
<trkpt lat="22.044790" lon="103.957207">
<ele>1015.3</ele>
<time>2011-04-26T04:29:05Z</time>
<desc>lat.=22.044790, lon.=103.957207, Alt.=1026.204102m. Speed=26.639999m/h.</desc>
<speed>7.400000</speed>
</trkpt>
<trkpt lat="22.045984" lon="103.958221">
<ele>1008.4</ele>
<time>2011-04-26T04:29:25Z</time>
<desc>lat.=22.045984, lon.=103.958221, Alt.=1018.023926m. Speed=27.504000m/h.</desc>
<speed>7.640000</speed>
</trkpt>
<trkpt lat="22.046257" lon="103.959351">
<ele>1002.0</ele>
<time>2011-04-26T04:29:45Z</time>
<desc>lat.=22.046257, lon.=103.959351, Alt.=1018.305176m. Speed=20.160000m/h.</desc>
<speed>5.600000</speed>
</trkpt>
<trkpt lat="22.047707" lon="103.960419">
<ele>1004.4</ele>
<time>2011-04-26T04:30:10Z</time>
<desc>lat.=22.047707, lon.=103.960419, Alt.=1013.773926m. Speed=33.264000m/h.</desc>
<speed>9.240000</speed>
</trkpt>
<trkpt lat="22.049059" lon="103.960075">
<ele>1012.3</ele>
<time>2011-04-26T04:30:25Z</time>
<desc>lat.=22.049059, lon.=103.960075, Alt.=1007.945801m. Speed=32.183998m/h.</desc>
<speed>8.939999</speed>
</trkpt>
<trkpt lat="22.050673" lon="103.960396">
<ele>981.2</ele>
<time>2011-04-26T04:30:45Z</time>
<desc>lat.=22.050673, lon.=103.960396, Alt.=1001.508301m. Speed=32.220001m/h.</desc>
<speed>8.950000</speed>
</trkpt>
<trkpt lat="22.051001" lon="103.960167">
<ele>996.2</ele>
<time>2011-04-26T04:30:50Z</time>
<desc>lat.=22.051001, lon.=103.960167, Alt.=1000.586426m. Speed=28.548000m/h.</desc>
<speed>7.930000</speed>
</trkpt>
<trkpt lat="22.052546" lon="103.959717">
<ele>981.5</ele>
<time>2011-04-26T04:31:15Z</time>
<desc>lat.=22.052546, lon.=103.959717, Alt.=998.695801m. Speed=23.615999m/h.</desc>
<speed>6.560000</speed>
</trkpt>
<trkpt lat="22.052959" lon="103.959145">
<ele>974.9</ele>
<time>2011-04-26T04:31:25Z</time>
<desc>lat.=22.052959, lon.=103.959145, Alt.=992.008301m. Speed=28.656000m/h.</desc>
<speed>7.960000</speed>
</trkpt>
<trkpt lat="22.053268" lon="103.959091">
<ele>980.1</ele>
<time>2011-04-26T04:31:30Z</time>
<desc>lat.=22.053268, lon.=103.959091, Alt.=989.336426m. Speed=25.704000m/h.</desc>
<speed>7.140000</speed>
</trkpt>
<trkpt lat="22.054335" lon="103.959137">
<ele>976.8</ele>
<time>2011-04-26T04:31:50Z</time>
<desc>lat.=22.054335, lon.=103.959137, Alt.=988.461426m. Speed=19.332001m/h.</desc>
<speed>5.370000</speed>
</trkpt>
<trkpt lat="22.054779" lon="103.960060">
<ele>968.4</ele>
<time>2011-04-26T04:32:10Z</time>
<desc>lat.=22.054779, lon.=103.960060, Alt.=990.320801m. Speed=22.392000m/h.</desc>
<speed>6.220000</speed>
</trkpt>
<trkpt lat="22.054731" lon="103.960358">
<ele>973.2</ele>
<time>2011-04-26T04:32:15Z</time>
<desc>lat.=22.054731, lon.=103.960358, Alt.=990.227051m. Speed=22.680000m/h.</desc>
<speed>6.300000</speed>
</trkpt>
<trkpt lat="22.054193" lon="103.960953">
<ele>969.4</ele>
<time>2011-04-26T04:32:30Z</time>
<desc>lat.=22.054193, lon.=103.960953, Alt.=987.180176m. Speed=19.332001m/h.</desc>
<speed>5.370000</speed>
</trkpt>
<trkpt lat="22.053215" lon="103.961525">
<ele>958.4</ele>
<time>2011-04-26T04:32:50Z</time>
<desc>lat.=22.053215, lon.=103.961525, Alt.=985.617676m. Speed=19.799999m/h.</desc>
<speed>5.500000</speed>
</trkpt>
<trkpt lat="22.053024" lon="103.962227">
<ele>961.8</ele>
<time>2011-04-26T04:33:00Z</time>
<desc>lat.=22.053024, lon.=103.962227, Alt.=979.789551m. Speed=30.240000m/h.</desc>
<speed>8.400000</speed>
</trkpt>
<trkpt lat="22.052782" lon="103.962471">
<ele>961.7</ele>
<time>2011-04-26T04:33:05Z</time>
<desc>lat.=22.052782, lon.=103.962471, Alt.=977.758301m. Speed=22.931999m/h.</desc>
<speed>6.370000</speed>
</trkpt>
<trkpt lat="22.052048" lon="103.962738">
<ele>941.9</ele>
<time>2011-04-26T04:33:20Z</time>
<desc>lat.=22.052048, lon.=103.962738, Alt.=974.055176m. Speed=14.472000m/h.</desc>
<speed>4.020000</speed>
</trkpt>
<trkpt lat="22.051870" lon="103.963295">
<ele>938.1</ele>
<time>2011-04-26T04:33:35Z</time>
<desc>lat.=22.051870, lon.=103.963295, Alt.=965.789551m. Speed=25.236000m/h.</desc>
<speed>7.010000</speed>
</trkpt>
<trkpt lat="22.052034" lon="103.964012">
<ele>946.6</ele>
<time>2011-04-26T04:33:45Z</time>
<desc>lat.=22.052034, lon.=103.964012, Alt.=955.898926m. Speed=22.068001m/h.</desc>
<speed>6.130000</speed>
</trkpt>
<trkpt lat="22.051882" lon="103.964264">
<ele>951.1</ele>
<time>2011-04-26T04:33:50Z</time>
<desc>lat.=22.051882, lon.=103.964264, Alt.=952.445801m. Speed=21.924000m/h.</desc>
<speed>6.090000</speed>
</trkpt>
<trkpt lat="22.051401" lon="103.964401">
<ele>958.2</ele>
<time>2011-04-26T04:34:00Z</time>
<desc>lat.=22.051401, lon.=103.964401, Alt.=947.367676m. Speed=20.412001m/h.</desc>
<speed>5.670000</speed>
</trkpt>
<trkpt lat="22.051205" lon="103.964218">
<ele>956.2</ele>
<time>2011-04-26T04:34:05Z</time>
<desc>lat.=22.051205, lon.=103.964218, Alt.=945.211426m. Speed=20.412001m/h.</desc>
<speed>5.670000</speed>
</trkpt>
<trkpt lat="22.050684" lon="103.964142">
<ele>945.9</ele>
<time>2011-04-26T04:34:15Z</time>
<desc>lat.=22.050684, lon.=103.964142, Alt.=941.289551m. Speed=22.356001m/h.</desc>
<speed>6.210000</speed>
</trkpt>
<trkpt lat="22.049749" lon="103.964706">
<ele>928.2</ele>
<time>2011-04-26T04:34:30Z</time>
<desc>lat.=22.049749, lon.=103.964706, Alt.=936.898926m. Speed=22.535999m/h.</desc>
<speed>6.260000</speed>
</trkpt>
<trkpt lat="22.049587" lon="103.965332">
<ele>942.8</ele>
<time>2011-04-26T04:34:40Z</time>
<desc>lat.=22.049587, lon.=103.965332, Alt.=935.617676m. Speed=22.608000m/h.</desc>
<speed>6.280000</speed>
</trkpt>
<trkpt lat="22.049387" lon="103.965515">
<ele>949.8</ele>
<time>2011-04-26T04:34:45Z</time>
<desc>lat.=22.049387, lon.=103.965515, Alt.=933.836426m. Speed=23.148001m/h.</desc>
<speed>6.430000</speed>
</trkpt>
<trkpt lat="22.048309" lon="103.965599">
<ele>946.8</ele>
<time>2011-04-26T04:35:05Z</time>
<desc>lat.=22.048309, lon.=103.965599, Alt.=928.305176m. Speed=21.132000m/h.</desc>
<speed>5.870000</speed>
</trkpt>
<trkpt lat="22.047699" lon="103.965981">
<ele>951.4</ele>
<time>2011-04-26T04:35:20Z</time>
<desc>lat.=22.047699, lon.=103.965981, Alt.=924.664551m. Speed=17.856001m/h.</desc>
<speed>4.960000</speed>
</trkpt>
<trkpt lat="22.047268" lon="103.965797">
<ele>928.6</ele>
<time>2011-04-26T04:35:30Z</time>
<desc>lat.=22.047268, lon.=103.965797, Alt.=921.945801m. Speed=16.091999m/h.</desc>
<speed>4.470000</speed>
</trkpt>
<trkpt lat="22.046440" lon="103.966377">
<ele>909.9</ele>
<time>2011-04-26T04:35:55Z</time>
<desc>lat.=22.046440, lon.=103.966377, Alt.=918.977051m. Speed=21.492001m/h.</desc>
<speed>5.970000</speed>
</trkpt>
<trkpt lat="22.045837" lon="103.967247">
<ele>901.3</ele>
<time>2011-04-26T04:36:15Z</time>
<desc>lat.=22.045837, lon.=103.967247, Alt.=918.883301m. Speed=19.620001m/h.</desc>
<speed>5.450000</speed>
</trkpt>
<trkpt lat="22.045565" lon="103.968086">
<ele>894.8</ele>
<time>2011-04-26T04:36:30Z</time>
<desc>lat.=22.045565, lon.=103.968086, Alt.=913.914551m. Speed=21.204000m/h.</desc>
<speed>5.890000</speed>
</trkpt>
<trkpt lat="22.045670" lon="103.968369">
<ele>895.3</ele>
<time>2011-04-26T04:36:55Z</time>
<desc>lat.=22.045670, lon.=103.968369, Alt.=910.383301m. Speed=0.288000m/h.</desc>
<speed>0.080000</speed>
</trkpt>
<trkpt lat="22.046032" lon="103.968628">
<ele>900.2</ele>
<time>2011-04-26T04:37:20Z</time>
<desc>lat.=22.046032, lon.=103.968628, Alt.=909.086426m. Speed=21.996000m/h.</desc>
<speed>6.110000</speed>
</trkpt>
<trkpt lat="22.046001" lon="103.969292">
<ele>896.0</ele>
<time>2011-04-26T04:37:30Z</time>
<desc>lat.=22.046001, lon.=103.969292, Alt.=908.648926m. Speed=29.412001m/h.</desc>
<speed>8.170000</speed>
</trkpt>
<trkpt lat="22.045782" lon="103.969971">
<ele>887.7</ele>
<time>2011-04-26T04:37:40Z</time>
<desc>lat.=22.045782, lon.=103.969971, Alt.=907.570801m. Speed=29.124001m/h.</desc>
<speed>8.090000</speed>
</trkpt>
<trkpt lat="22.046482" lon="103.970413">
<ele>886.3</ele>
<time>2011-04-26T04:37:50Z</time>
<desc>lat.=22.046482, lon.=103.970413, Alt.=903.445801m. Speed=27.684000m/h.</desc>
<speed>7.690000</speed>
</trkpt>
<trkpt lat="22.046543" lon="103.970703">
<ele>887.1</ele>
<time>2011-04-26T04:37:55Z</time>
<desc>lat.=22.046543, lon.=103.970703, Alt.=900.805176m. Speed=21.492001m/h.</desc>
<speed>5.970000</speed>
</trkpt>
<trkpt lat="22.046206" lon="103.971291">
<ele>886.0</ele>
<time>2011-04-26T04:38:05Z</time>
<desc>lat.=22.046206, lon.=103.971291, Alt.=898.148926m. Speed=26.712000m/h.</desc>
<speed>7.420000</speed>
</trkpt>
<trkpt lat="22.045248" lon="103.971985">
<ele>877.0</ele>
<time>2011-04-26T04:38:20Z</time>
<desc>lat.=22.045248, lon.=103.971985, Alt.=894.727051m. Speed=20.844000m/h.</desc>
<speed>5.790000</speed>
</trkpt>
<trkpt lat="22.044992" lon="103.971992">
<ele>870.7</ele>
<time>2011-04-26T04:38:25Z</time>
<desc>lat.=22.044992, lon.=103.971992, Alt.=893.320801m. Speed=19.836000m/h.</desc>
<speed>5.510000</speed>
</trkpt>
<trkpt lat="22.044868" lon="103.971764">
<ele>867.2</ele>
<time>2011-04-26T04:38:30Z</time>
<desc>lat.=22.044868, lon.=103.971764, Alt.=890.820801m. Speed=26.639999m/h.</desc>
<speed>7.400000</speed>
</trkpt>
<trkpt lat="22.044964" lon="103.971397">
<ele>869.5</ele>
<time>2011-04-26T04:38:35Z</time>
<desc>lat.=22.044964, lon.=103.971397, Alt.=889.148926m. Speed=27.612000m/h.</desc>
<speed>7.670000</speed>
</trkpt>
<trkpt lat="22.045763" lon="103.970634">
<ele>862.5</ele>
<time>2011-04-26T04:38:50Z</time>
<desc>lat.=22.045763, lon.=103.970634, Alt.=878.133301m. Speed=29.700001m/h.</desc>
<speed>8.250000</speed>
</trkpt>
<trkpt lat="22.045103" lon="103.969864">
<ele>849.8</ele>
<time>2011-04-26T04:39:20Z</time>
<desc>lat.=22.045103, lon.=103.969864, Alt.=860.070801m. Speed=16.308001m/h.</desc>
<speed>4.530000</speed>
</trkpt>
<trkpt lat="22.045202" lon="103.969200">
<ele>853.0</ele>
<time>2011-04-26T04:39:40Z</time>
<desc>lat.=22.045202, lon.=103.969200, Alt.=854.023926m. Speed=17.316000m/h.</desc>
<speed>4.810000</speed>
</trkpt>
<trkpt lat="22.044809" lon="103.968391">
<ele>841.6</ele>
<time>2011-04-26T04:39:55Z</time>
<desc>lat.=22.044809, lon.=103.968391, Alt.=850.289551m. Speed=19.872000m/h.</desc>
<speed>5.520000</speed>
</trkpt>
<trkpt lat="22.044834" lon="103.968048">
<ele>844.1</ele>
<time>2011-04-26T04:40:00Z</time>
<desc>lat.=22.044834, lon.=103.968048, Alt.=849.008301m. Speed=20.879999m/h.</desc>
<speed>5.800000</speed>
</trkpt>
<trkpt lat="22.045078" lon="103.967560">
<ele>847.3</ele>
<time>2011-04-26T04:40:10Z</time>
<desc>lat.=22.045078, lon.=103.967560, Alt.=847.086426m. Speed=21.420000m/h.</desc>
<speed>5.950000</speed>
</trkpt>
<trkpt lat="22.045282" lon="103.966461">
<ele>832.8</ele>
<time>2011-04-26T04:40:30Z</time>
<desc>lat.=22.045282, lon.=103.966461, Alt.=839.680176m. Speed=26.892000m/h.</desc>
<speed>7.470000</speed>
</trkpt>
<trkpt lat="22.045933" lon="103.965767">
<ele>834.1</ele>
<time>2011-04-26T04:40:40Z</time>
<desc>lat.=22.045933, lon.=103.965767, Alt.=833.086426m. Speed=37.259998m/h.</desc>
<speed>10.350000</speed>
</trkpt>
<trkpt lat="22.046133" lon="103.965088">
<ele>826.1</ele>
<time>2011-04-26T04:40:50Z</time>
<desc>lat.=22.046133, lon.=103.965088, Alt.=825.273926m. Speed=20.124001m/h.</desc>
<speed>5.590000</speed>
</trkpt>
<trkpt lat="22.046743" lon="103.964317">
<ele>825.0</ele>
<time>2011-04-26T04:41:05Z</time>
<desc>lat.=22.046743, lon.=103.964317, Alt.=818.211426m. Speed=21.563999m/h.</desc>
<speed>5.990000</speed>
</trkpt>
<trkpt lat="22.046663" lon="103.964066">
<ele>822.4</ele>
<time>2011-04-26T04:41:10Z</time>
<desc>lat.=22.046663, lon.=103.964066, Alt.=816.523926m. Speed=17.639999m/h.</desc>
<speed>4.900000</speed>
</trkpt>
<trkpt lat="22.046253" lon="103.963715">
<ele>818.6</ele>
<time>2011-04-26T04:41:25Z</time>
<desc>lat.=22.046253, lon.=103.963715, Alt.=808.742676m. Speed=11.088000m/h.</desc>
<speed>3.080000</speed>
</trkpt>
<trkpt lat="22.044334" lon="103.964500">
<ele>834.4</ele>
<time>2011-04-26T04:46:05Z</time>
<desc>lat.=22.044334, lon.=103.964500, Alt.=805.523926m. Speed=6.984000m/h.</desc>
<speed>1.940000</speed>
</trkpt>
<trkpt lat="22.044056" lon="103.964394">
<ele>824.4</ele>
<time>2011-04-26T04:46:15Z</time>
<desc>lat.=22.044056, lon.=103.964394, Alt.=807.414551m. Speed=15.552000m/h.</desc>
<speed>4.320000</speed>
</trkpt>
<trkpt lat="22.043823" lon="103.963821">
<ele>814.8</ele>
<time>2011-04-26T04:46:25Z</time>
<desc>lat.=22.043823, lon.=103.963821, Alt.=806.023926m. Speed=25.488001m/h.</desc>
<speed>7.080000</speed>
</trkpt>
<trkpt lat="22.043552" lon="103.963699">
<ele>815.3</ele>
<time>2011-04-26T04:46:30Z</time>
<desc>lat.=22.043552, lon.=103.963699, Alt.=805.445801m. Speed=24.191999m/h.</desc>
<speed>6.720000</speed>
</trkpt>
<trkpt lat="22.043257" lon="103.963791">
<ele>815.9</ele>
<time>2011-04-26T04:46:35Z</time>
<desc>lat.=22.043257, lon.=103.963791, Alt.=802.930176m. Speed=24.299999m/h.</desc>
<speed>6.750000</speed>
</trkpt>
<trkpt lat="22.042301" lon="103.964928">
<ele>797.9</ele>
<time>2011-04-26T04:46:55Z</time>
<desc>lat.=22.042301, lon.=103.964928, Alt.=794.555176m. Speed=17.532000m/h.</desc>
<speed>4.870000</speed>
</trkpt>
<trkpt lat="22.041557" lon="103.964546">
<ele>793.2</ele>
<time>2011-04-26T04:47:10Z</time>
<desc>lat.=22.041557, lon.=103.964546, Alt.=783.883301m. Speed=26.316000m/h.</desc>
<speed>7.310000</speed>
</trkpt>
<trkpt lat="22.040821" lon="103.963928">
<ele>786.8</ele>
<time>2011-04-26T04:47:25Z</time>
<desc>lat.=22.040821, lon.=103.963928, Alt.=775.711426m. Speed=20.952000m/h.</desc>
<speed>5.820000</speed>
</trkpt>
<trkpt lat="22.040550" lon="103.963814">
<ele>789.2</ele>
<time>2011-04-26T04:47:30Z</time>
<desc>lat.=22.040550, lon.=103.963814, Alt.=776.961426m. Speed=12.528000m/h.</desc>
<speed>3.480000</speed>
</trkpt>
<trkpt lat="22.040257" lon="103.963943">
<ele>792.6</ele>
<time>2011-04-26T04:47:35Z</time>
<desc>lat.=22.040257, lon.=103.963943, Alt.=777.445801m. Speed=26.676001m/h.</desc>
<speed>7.410000</speed>
</trkpt>
<trkpt lat="22.039955" lon="103.965141">
<ele>801.3</ele>
<time>2011-04-26T04:48:05Z</time>
<desc>lat.=22.039955, lon.=103.965141, Alt.=780.211426m. Speed=19.296000m/h.</desc>
<speed>5.360000</speed>
</trkpt>
<trkpt lat="22.040270" lon="103.966690">
<ele>776.9</ele>
<time>2011-04-26T04:48:30Z</time>
<desc>lat.=22.040270, lon.=103.966690, Alt.=790.227051m. Speed=18.827999m/h.</desc>
<speed>5.230000</speed>
</trkpt>
<trkpt lat="22.040203" lon="103.967354">
<ele>766.0</ele>
<time>2011-04-26T04:48:40Z</time>
<desc>lat.=22.040203, lon.=103.967354, Alt.=788.789551m. Speed=24.516001m/h.</desc>
<speed>6.810000</speed>
</trkpt>
<trkpt lat="22.040583" lon="103.968330">
<ele>768.2</ele>
<time>2011-04-26T04:50:40Z</time>
<desc>lat.=22.040583, lon.=103.968330, Alt.=778.539551m. Speed=12.024000m/h.</desc>
<speed>3.340000</speed>
</trkpt>
<trkpt lat="22.040628" lon="103.969070">
<ele>762.7</ele>
<time>2011-04-26T04:50:55Z</time>
<desc>lat.=22.040628, lon.=103.969070, Alt.=777.570801m. Speed=16.164000m/h.</desc>
<speed>4.490000</speed>
</trkpt>
<trkpt lat="22.041004" lon="103.969696">
<ele>749.4</ele>
<time>2011-04-26T04:53:05Z</time>
<desc>lat.=22.041004, lon.=103.969696, Alt.=767.242676m. Speed=1.188000m/h.</desc>
<speed>0.330000</speed>
</trkpt>
<trkpt lat="22.040739" lon="103.970360">
<ele>741.0</ele>
<time>2011-04-26T04:56:00Z</time>
<desc>lat.=22.040739, lon.=103.970360, Alt.=745.242676m. Speed=18.576000m/h.</desc>
<speed>5.160000</speed>
</trkpt>
<trkpt lat="22.040712" lon="103.971199">
<ele>733.8</ele>
<time>2011-04-26T04:56:15Z</time>
<desc>lat.=22.040712, lon.=103.971199, Alt.=740.883301m. Speed=20.879999m/h.</desc>
<speed>5.800000</speed>
</trkpt>
<trkpt lat="22.040005" lon="103.972633">
<ele>711.7</ele>
<time>2011-04-26T04:56:40Z</time>
<desc>lat.=22.040005, lon.=103.972633, Alt.=731.227051m. Speed=17.747999m/h.</desc>
<speed>4.930000</speed>
</trkpt>
<trkpt lat="22.039757" lon="103.972687">
<ele>702.9</ele>
<time>2011-04-26T04:56:45Z</time>
<desc>lat.=22.039757, lon.=103.972687, Alt.=730.648926m. Speed=21.167999m/h.</desc>
<speed>5.880000</speed>
</trkpt>
<trkpt lat="22.038723" lon="103.971695">
<ele>698.5</ele>
<time>2011-04-26T04:57:05Z</time>
<desc>lat.=22.038723, lon.=103.971695, Alt.=718.602051m. Speed=24.336000m/h.</desc>
<speed>6.760000</speed>
</trkpt>
<trkpt lat="22.038174" lon="103.971870">
<ele>696.2</ele>
<time>2011-04-26T04:57:15Z</time>
<desc>lat.=22.038174, lon.=103.971870, Alt.=712.680176m. Speed=21.600000m/h.</desc>
<speed>6.000000</speed>
</trkpt>
<trkpt lat="22.037640" lon="103.971703">
<ele>689.4</ele>
<time>2011-04-26T04:57:25Z</time>
<desc>lat.=22.037640, lon.=103.971703, Alt.=705.945801m. Speed=25.164000m/h.</desc>
<speed>6.990000</speed>
</trkpt>
<trkpt lat="22.036629" lon="103.970512">
<ele>679.8</ele>
<time>2011-04-26T04:57:50Z</time>
<desc>lat.=22.036629, lon.=103.970512, Alt.=689.180176m. Speed=17.028000m/h.</desc>
<speed>4.730000</speed>
</trkpt>
<trkpt lat="22.036182" lon="103.970535">
<ele>679.5</ele>
<time>2011-04-26T04:58:05Z</time>
<desc>lat.=22.036182, lon.=103.970535, Alt.=679.133301m. Speed=7.308000m/h.</desc>
<speed>2.030000</speed>
</trkpt>
<trkpt lat="22.035679" lon="103.971123">
<ele>692.2</ele>
<time>2011-04-26T04:58:35Z</time>
<desc>lat.=22.035679, lon.=103.971123, Alt.=668.398926m. Speed=11.160000m/h.</desc>
<speed>3.100000</speed>
</trkpt>
<trkpt lat="22.035639" lon="103.971596">
<ele>679.3</ele>
<time>2011-04-26T04:58:45Z</time>
<desc>lat.=22.035639, lon.=103.971596, Alt.=664.398926m. Speed=13.392000m/h.</desc>
<speed>3.720000</speed>
</trkpt>
<trkpt lat="22.035763" lon="103.971771">
<ele>678.0</ele>
<time>2011-04-26T04:58:50Z</time>
<desc>lat.=22.035763, lon.=103.971771, Alt.=662.367676m. Speed=13.320000m/h.</desc>
<speed>3.700000</speed>
</trkpt>
<trkpt lat="22.036444" lon="103.972229">
<ele>691.4</ele>
<time>2011-04-26T04:59:20Z</time>
<desc>lat.=22.036444, lon.=103.972229, Alt.=653.383301m. Speed=11.520000m/h.</desc>
<speed>3.200000</speed>
</trkpt>
<trkpt lat="22.038483" lon="103.974358">
<ele>671.0</ele>
<time>2011-04-26T05:00:20Z</time>
<desc>lat.=22.038483, lon.=103.974358, Alt.=643.008301m. Speed=27.035999m/h.</desc>
<speed>7.510000</speed>
</trkpt>
<trkpt lat="22.038439" lon="103.975647">
<ele>671.7</ele>
<time>2011-04-26T05:00:40Z</time>
<desc>lat.=22.038439, lon.=103.975647, Alt.=640.148926m. Speed=24.299999m/h.</desc>
<speed>6.750000</speed>
</trkpt>
<trkpt lat="22.039165" lon="103.977058">
<ele>661.1</ele>
<time>2011-04-26T05:01:00Z</time>
<desc>lat.=22.039165, lon.=103.977058, Alt.=637.711426m. Speed=28.403999m/h.</desc>
<speed>7.890000</speed>
</trkpt>
<trkpt lat="22.038891" lon="103.977844">
<ele>656.7</ele>
<time>2011-04-26T05:01:10Z</time>
<desc>lat.=22.038891, lon.=103.977844, Alt.=637.367676m. Speed=34.416000m/h.</desc>
<speed>9.560000</speed>
</trkpt>
<trkpt lat="22.038986" lon="103.978310">
<ele>655.4</ele>
<time>2011-04-26T05:01:15Z</time>
<desc>lat.=22.038986, lon.=103.978310, Alt.=637.461426m. Speed=36.720001m/h.</desc>
<speed>10.200000</speed>
</trkpt>
<trkpt lat="22.039764" lon="103.979233">
<ele>655.2</ele>
<time>2011-04-26T05:01:45Z</time>
<desc>lat.=22.039764, lon.=103.979233, Alt.=639.805176m. Speed=11.304000m/h.</desc>
<speed>3.140000</speed>
</trkpt>
<trkpt lat="22.039635" lon="103.979927">
<ele>644.1</ele>
<time>2011-04-26T05:02:00Z</time>
<desc>lat.=22.039635, lon.=103.979927, Alt.=639.680176m. Speed=21.924000m/h.</desc>
<speed>6.090000</speed>
</trkpt>
<trkpt lat="22.039114" lon="103.980499">
<ele>651.5</ele>
<time>2011-04-26T05:02:10Z</time>
<desc>lat.=22.039114, lon.=103.980499, Alt.=639.055176m. Speed=27.288000m/h.</desc>
<speed>7.580000</speed>
</trkpt>
<trkpt lat="22.039183" lon="103.981033">
<ele>669.5</ele>
<time>2011-04-26T05:02:25Z</time>
<desc>lat.=22.039183, lon.=103.981033, Alt.=639.711426m. Speed=4.716000m/h.</desc>
<speed>1.310000</speed>
</trkpt>
<trkpt lat="22.039841" lon="103.981758">
<ele>657.4</ele>
<time>2011-04-26T05:03:05Z</time>
<desc>lat.=22.039841, lon.=103.981758, Alt.=642.445801m. Speed=7.488000m/h.</desc>
<speed>2.080000</speed>
</trkpt>
<trkpt lat="22.039265" lon="103.982422">
<ele>666.6</ele>
<time>2011-04-26T05:03:40Z</time>
<desc>lat.=22.039265, lon.=103.982422, Alt.=645.430176m. Speed=9.036000m/h.</desc>
<speed>2.510000</speed>
</trkpt>
<trkpt lat="22.039162" lon="103.982742">
<ele>668.7</ele>
<time>2011-04-26T05:03:50Z</time>
<desc>lat.=22.039162, lon.=103.982742, Alt.=646.992676m. Speed=10.800000m/h.</desc>
<speed>3.000000</speed>
</trkpt>
<trkpt lat="22.039486" lon="103.984840">
<ele>662.0</ele>
<time>2011-04-26T05:04:45Z</time>
<desc>lat.=22.039486, lon.=103.984840, Alt.=656.539551m. Speed=13.752000m/h.</desc>
<speed>3.820000</speed>
</trkpt>
<trkpt lat="22.039352" lon="103.985237">
<ele>666.4</ele>
<time>2011-04-26T05:04:55Z</time>
<desc>lat.=22.039352, lon.=103.985237, Alt.=656.117676m. Speed=12.816000m/h.</desc>
<speed>3.560000</speed>
</trkpt>
<trkpt lat="22.039722" lon="103.985825">
<ele>652.6</ele>
<time>2011-04-26T05:05:10Z</time>
<desc>lat.=22.039722, lon.=103.985825, Alt.=650.180176m. Speed=14.724000m/h.</desc>
<speed>4.090000</speed>
</trkpt>
<trkpt lat="22.039719" lon="103.986320">
<ele>654.9</ele>
<time>2011-04-26T05:05:20Z</time>
<desc>lat.=22.039719, lon.=103.986320, Alt.=647.367676m. Speed=21.563999m/h.</desc>
<speed>5.990000</speed>
</trkpt>
<trkpt lat="22.040272" lon="103.986992">
<ele>645.8</ele>
<time>2011-04-26T05:05:35Z</time>
<desc>lat.=22.040272, lon.=103.986992, Alt.=643.117676m. Speed=19.260000m/h.</desc>
<speed>5.350000</speed>
</trkpt>
<trkpt lat="22.040546" lon="103.988785">
<ele>617.5</ele>
<time>2011-04-26T05:07:05Z</time>
<desc>lat.=22.040546, lon.=103.988785, Alt.=625.945801m. Speed=22.500000m/h.</desc>
<speed>6.250000</speed>
</trkpt>
<trkpt lat="22.040432" lon="103.989090">
<ele>596.2</ele>
<time>2011-04-26T05:07:20Z</time>
<desc>lat.=22.040432, lon.=103.989090, Alt.=608.977051m. Speed=1.044000m/h.</desc>
<speed>0.290000</speed>
</trkpt>
<trkpt lat="22.039728" lon="103.989159">
<ele>584.5</ele>
<time>2011-04-26T05:08:45Z</time>
<desc>lat.=22.039728, lon.=103.989159, Alt.=588.023926m. Speed=3.744000m/h.</desc>
<speed>1.040000</speed>
</trkpt>
<trkpt lat="22.039721" lon="103.989037">
<ele>594.7</ele>
<time>2011-04-26T05:10:45Z</time>
<desc>lat.=22.039721, lon.=103.989037, Alt.=584.039551m. Speed=0.000000m/h.</desc>
<speed>0.000000</speed>
</trkpt>
<trkpt lat="22.039371" lon="103.989014">
<ele>595.6</ele>
<time>2011-04-26T05:12:05Z</time>
<desc>lat.=22.039371, lon.=103.989014, Alt.=585.148926m. Speed=17.892000m/h.</desc>
<speed>4.970000</speed>
</trkpt>
<trkpt lat="22.038317" lon="103.989365">
<ele>588.2</ele>
<time>2011-04-26T05:12:25Z</time>
<desc>lat.=22.038317, lon.=103.989365, Alt.=583.133301m. Speed=9.828000m/h.</desc>
<speed>2.730000</speed>
</trkpt>
<trkpt lat="22.037106" lon="103.988831">
<ele>587.4</ele>
<time>2011-04-26T05:12:55Z</time>
<desc>lat.=22.037106, lon.=103.988831, Alt.=575.758301m. Speed=13.176000m/h.</desc>
<speed>3.660000</speed>
</trkpt>
<trkpt lat="22.037834" lon="103.990059">
<ele>590.7</ele>
<time>2011-04-26T05:13:45Z</time>
<desc>lat.=22.037834, lon.=103.990059, Alt.=571.039551m. Speed=5.904000m/h.</desc>
<speed>1.640000</speed>
</trkpt>
<trkpt lat="22.038000" lon="103.990807">
<ele>603.0</ele>
<time>2011-04-26T05:16:30Z</time>
<desc>lat.=22.038000, lon.=103.990807, Alt.=575.758301m. Speed=0.432000m/h.</desc>
<speed>0.120000</speed>
</trkpt>
<trkpt lat="22.038126" lon="103.990723">
<ele>588.8</ele>
<time>2011-04-26T05:17:25Z</time>
<desc>lat.=22.038126, lon.=103.990723, Alt.=577.320801m. Speed=1.404000m/h.</desc>
<speed>0.390000</speed>
</trkpt>
<trkpt lat="22.038153" lon="103.990837">
<ele>583.0</ele>
<time>2011-04-26T05:18:15Z</time>
<desc>lat.=22.038153, lon.=103.990837, Alt.=579.008301m. Speed=0.324000m/h.</desc>
<speed>0.090000</speed>
</trkpt>
<trkpt lat="22.037539" lon="103.991394">
<ele>619.7</ele>
<time>2011-04-26T05:18:55Z</time>
<desc>lat.=22.037539, lon.=103.991394, Alt.=581.789551m. Speed=19.044001m/h.</desc>
<speed>5.290000</speed>
</trkpt>
<trkpt lat="22.037169" lon="103.992172">
<ele>573.3</ele>
<time>2011-04-26T05:19:10Z</time>
<desc>lat.=22.037169, lon.=103.992172, Alt.=580.273926m. Speed=15.732000m/h.</desc>
<speed>4.370000</speed>
</trkpt>
<trkpt lat="22.036596" lon="103.992538">
<ele>564.2</ele>
<time>2011-04-26T05:19:20Z</time>
<desc>lat.=22.036596, lon.=103.992538, Alt.=578.258301m. Speed=23.868000m/h.</desc>
<speed>6.630000</speed>
</trkpt>
<trkpt lat="22.036644" lon="103.992882">
<ele>565.6</ele>
<time>2011-04-26T05:19:25Z</time>
<desc>lat.=22.036644, lon.=103.992882, Alt.=578.789551m. Speed=22.320000m/h.</desc>
<speed>6.200000</speed>
</trkpt>
<trkpt lat="22.037281" lon="103.993340">
<ele>567.2</ele>
<time>2011-04-26T05:19:50Z</time>
<desc>lat.=22.037281, lon.=103.993340, Alt.=584.164551m. Speed=6.516000m/h.</desc>
<speed>1.810000</speed>
</trkpt>
<trkpt lat="22.038277" lon="103.993690">
<ele>561.6</ele>
<time>2011-04-26T05:20:25Z</time>
<desc>lat.=22.038277, lon.=103.993690, Alt.=592.836426m. Speed=9.288000m/h.</desc>
<speed>2.580000</speed>
</trkpt>
<trkpt lat="22.038771" lon="103.994370">
<ele>571.7</ele>
<time>2011-04-26T05:20:40Z</time>
<desc>lat.=22.038771, lon.=103.994370, Alt.=586.570801m. Speed=24.695999m/h.</desc>
<speed>6.860000</speed>
</trkpt>
<trkpt lat="22.039749" lon="103.995155">
<ele>563.6</ele>
<time>2011-04-26T05:21:05Z</time>
<desc>lat.=22.039749, lon.=103.995155, Alt.=580.023926m. Speed=12.024000m/h.</desc>
<speed>3.340000</speed>
</trkpt>
<trkpt lat="22.039879" lon="103.995743">
<ele>553.2</ele>
<time>2011-04-26T05:21:20Z</time>
<desc>lat.=22.039879, lon.=103.995743, Alt.=574.758301m. Speed=16.271999m/h.</desc>
<speed>4.520000</speed>
</trkpt>
<trkpt lat="22.039345" lon="103.997620">
<ele>539.5</ele>
<time>2011-04-26T05:21:45Z</time>
<desc>lat.=22.039345, lon.=103.997620, Alt.=568.305176m. Speed=29.988001m/h.</desc>
<speed>8.330000</speed>
</trkpt>
<trkpt lat="22.037399" lon="104.000153">
<ele>517.5</ele>
<time>2011-04-26T05:22:30Z</time>
<desc>lat.=22.037399, lon.=104.000153, Alt.=566.664551m. Speed=38.664001m/h.</desc>
<speed>10.740000</speed>
</trkpt>
<trkpt lat="22.037312" lon="104.001106">
<ele>519.7</ele>
<time>2011-04-26T05:22:40Z</time>
<desc>lat.=22.037312, lon.=104.001106, Alt.=566.398926m. Speed=24.695999m/h.</desc>
<speed>6.860000</speed>
</trkpt>
<trkpt lat="22.037420" lon="104.001854">
<ele>521.9</ele>
<time>2011-04-26T05:22:55Z</time>
<desc>lat.=22.037420, lon.=104.001854, Alt.=564.789551m. Speed=9.180000m/h.</desc>
<speed>2.550000</speed>
</trkpt>
<trkpt lat="22.036802" lon="104.002083">
<ele>529.9</ele>
<time>2011-04-26T05:23:40Z</time>
<desc>lat.=22.036802, lon.=104.002083, Alt.=574.086426m. Speed=2.304000m/h.</desc>
<speed>0.640000</speed>
</trkpt>
<trkpt lat="22.036852" lon="104.002228">
<ele>534.2</ele>
<time>2011-04-26T05:24:05Z</time>
<desc>lat.=22.036852, lon.=104.002228, Alt.=575.477051m. Speed=0.720000m/h.</desc>
<speed>0.200000</speed>
</trkpt>
<trkpt lat="22.036970" lon="104.002007">
<ele>530.5</ele>
<time>2011-04-26T05:24:20Z</time>
<desc>lat.=22.036970, lon.=104.002007, Alt.=573.414551m. Speed=6.192000m/h.</desc>
<speed>1.720000</speed>
</trkpt>
<trkpt lat="22.036579" lon="104.001991">
<ele>535.5</ele>
<time>2011-04-26T05:25:00Z</time>
<desc>lat.=22.036579, lon.=104.001991, Alt.=566.242676m. Speed=1.116000m/h.</desc>
<speed>0.310000</speed>
</trkpt>
<trkpt lat="22.036928" lon="104.002411">
<ele>548.4</ele>
<time>2011-04-26T05:27:05Z</time>
<desc>lat.=22.036928, lon.=104.002411, Alt.=556.789551m. Speed=3.276000m/h.</desc>
<speed>0.910000</speed>
</trkpt>
<trkpt lat="22.036472" lon="104.001892">
<ele>542.1</ele>
<time>2011-04-26T05:28:45Z</time>
<desc>lat.=22.036472, lon.=104.001892, Alt.=551.148926m. Speed=2.160000m/h.</desc>
<speed>0.600000</speed>
</trkpt>
<trkpt lat="22.036587" lon="104.002075">
<ele>532.3</ele>
<time>2011-04-26T05:29:40Z</time>
<desc>lat.=22.036587, lon.=104.002075, Alt.=549.898926m. Speed=2.088000m/h.</desc>
<speed>0.580000</speed>
</trkpt>
<trkpt lat="22.036388" lon="104.001976">
<ele>541.6</ele>
<time>2011-04-26T05:30:05Z</time>
<desc>lat.=22.036388, lon.=104.001976, Alt.=550.570801m. Speed=2.016000m/h.</desc>
<speed>0.560000</speed>
</trkpt>
<trkpt lat="22.036974" lon="104.002563">
<ele>558.1</ele>
<time>2011-04-26T05:32:35Z</time>
<desc>lat.=22.036974, lon.=104.002563, Alt.=548.867676m. Speed=3.096000m/h.</desc>
<speed>0.860000</speed>
</trkpt>
<trkpt lat="22.036526" lon="104.002014">
<ele>535.3</ele>
<time>2011-04-26T05:33:40Z</time>
<desc>lat.=22.036526, lon.=104.002014, Alt.=548.320801m. Speed=2.160000m/h.</desc>
<speed>0.600000</speed>
</trkpt>
<trkpt lat="22.036549" lon="104.002144">
<ele>529.9</ele>
<time>2011-04-26T05:33:50Z</time>
<desc>lat.=22.036549, lon.=104.002144, Alt.=548.477051m. Speed=1.548000m/h.</desc>
<speed>0.430000</speed>
</trkpt>
<trkpt lat="22.036833" lon="104.002289">
<ele>539.1</ele>
<time>2011-04-26T05:34:20Z</time>
<desc>lat.=22.036833, lon.=104.002289, Alt.=548.211426m. Speed=3.600000m/h.</desc>
<speed>1.000000</speed>
</trkpt>
<trkpt lat="22.036551" lon="104.001976">
<ele>536.4</ele>
<time>2011-04-26T05:35:35Z</time>
<desc>lat.=22.036551, lon.=104.001976, Alt.=547.711426m. Speed=1.188000m/h.</desc>
<speed>0.330000</speed>
</trkpt>
<trkpt lat="22.037043" lon="104.002556">
<ele>557.4</ele>
<time>2011-04-26T05:38:30Z</time>
<desc>lat.=22.037043, lon.=104.002556, Alt.=548.961426m. Speed=3.672000m/h.</desc>
<speed>1.020000</speed>
</trkpt>
<trkpt lat="22.036535" lon="104.002007">
<ele>535.5</ele>
<time>2011-04-26T05:39:50Z</time>
<desc>lat.=22.036535, lon.=104.002007, Alt.=547.477051m. Speed=0.432000m/h.</desc>
<speed>0.120000</speed>
</trkpt>
<trkpt lat="22.036634" lon="104.002174">
<ele>530.6</ele>
<time>2011-04-26T05:40:50Z</time>
<desc>lat.=22.036634, lon.=104.002174, Alt.=541.180176m. Speed=0.864000m/h.</desc>
<speed>0.240000</speed>
</trkpt>
<trkpt lat="22.036438" lon="104.002075">
<ele>536.0</ele>
<time>2011-04-26T05:42:40Z</time>
<desc>lat.=22.036438, lon.=104.002075, Alt.=542.555176m. Speed=1.872000m/h.</desc>
<speed>0.520000</speed>
</trkpt>
<trkpt lat="22.036785" lon="104.002289">
<ele>539.1</ele>
<time>2011-04-26T05:44:50Z</time>
<desc>lat.=22.036785, lon.=104.002289, Alt.=542.805176m. Speed=1.800000m/h.</desc>
<speed>0.500000</speed>
</trkpt>
<trkpt lat="22.036470" lon="104.002022">
<ele>537.0</ele>
<time>2011-04-26T05:50:15Z</time>
<desc>lat.=22.036470, lon.=104.002022, Alt.=535.930176m. Speed=0.756000m/h.</desc>
<speed>0.210000</speed>
</trkpt>
<trkpt lat="22.036551" lon="104.002098">
<ele>531.7</ele>
<time>2011-04-26T05:52:15Z</time>
<desc>lat.=22.036551, lon.=104.002098, Alt.=535.945801m. Speed=0.216000m/h.</desc>
<speed>0.060000</speed>
</trkpt>
<trkpt lat="22.036415" lon="104.002121">
<ele>534.9</ele>
<time>2011-04-26T05:53:20Z</time>
<desc>lat.=22.036415, lon.=104.002121, Alt.=534.977051m. Speed=1.548000m/h.</desc>
<speed>0.430000</speed>
</trkpt>
<trkpt lat="22.036636" lon="104.002113">
<ele>530.5</ele>
<time>2011-04-26T06:05:50Z</time>
<desc>lat.=22.036636, lon.=104.002113, Alt.=535.617676m. Speed=0.216000m/h.</desc>
<speed>0.060000</speed>
</trkpt>
<trkpt lat="22.036425" lon="104.002266">
<ele>538.9</ele>
<time>2011-04-26T06:17:00Z</time>
<desc>lat.=22.036425, lon.=104.002266, Alt.=534.367676m. Speed=0.072000m/h.</desc>
<speed>0.020000</speed>
</trkpt>
<trkpt lat="22.036497" lon="104.001984">
<ele>537.5</ele>
<time>2011-04-26T06:21:05Z</time>
<desc>lat.=22.036497, lon.=104.001984, Alt.=527.273926m. Speed=0.648000m/h.</desc>
<speed>0.180000</speed>
</trkpt>
<trkpt lat="22.036564" lon="104.002174">
<ele>530.9</ele>
<time>2011-04-26T06:23:10Z</time>
<desc>lat.=22.036564, lon.=104.002174, Alt.=523.508301m. Speed=0.144000m/h.</desc>
<speed>0.040000</speed>
</trkpt>
<trkpt lat="22.036467" lon="104.001938">
<ele>540.4</ele>
<time>2011-04-26T06:24:25Z</time>
<desc>lat.=22.036467, lon.=104.001938, Alt.=513.727051m. Speed=0.216000m/h.</desc>
<speed>0.060000</speed>
</trkpt>
<trkpt lat="22.036510" lon="104.002106">
<ele>532.2</ele>
<time>2011-04-26T06:25:10Z</time>
<desc>lat.=22.036510, lon.=104.002106, Alt.=509.496338m. Speed=0.216000m/h.</desc>
<speed>0.060000</speed>
</trkpt>
<trkpt lat="22.036556" lon="104.001854">
<ele>541.1</ele>
<time>2011-04-26T06:34:05Z</time>
<desc>lat.=22.036556, lon.=104.001854, Alt.=475.308838m. Speed=0.396000m/h.</desc>
<speed>0.110000</speed>
</trkpt>
<trkpt lat="22.036644" lon="104.001953">
<ele>535.8</ele>
<time>2011-04-26T06:34:35Z</time>
<desc>lat.=22.036644, lon.=104.001953, Alt.=478.332275m. Speed=1.800000m/h.</desc>
<speed>0.500000</speed>
</trkpt>
<trkpt lat="22.036524" lon="104.001915">
<ele>539.3</ele>
<time>2011-04-26T06:35:45Z</time>
<desc>lat.=22.036524, lon.=104.001915, Alt.=488.394775m. Speed=0.108000m/h.</desc>
<speed>0.030000</speed>
</trkpt>
<trkpt lat="22.036467" lon="104.002068">
<ele>535.2</ele>
<time>2011-04-26T06:41:55Z</time>
<desc>lat.=22.036467, lon.=104.002068, Alt.=513.164551m. Speed=0.360000m/h.</desc>
<speed>0.100000</speed>
</trkpt>
<trkpt lat="22.036839" lon="104.002144">
<ele>528.2</ele>
<time>2011-04-26T06:43:05Z</time>
<desc>lat.=22.036839, lon.=104.002144, Alt.=518.570801m. Speed=6.084000m/h.</desc>
<speed>1.690000</speed>
</trkpt>
<trkpt lat="22.037046" lon="104.002464">
<ele>551.8</ele>
<time>2011-04-26T06:43:35Z</time>
<desc>lat.=22.037046, lon.=104.002464, Alt.=521.633301m. Speed=4.896000m/h.</desc>
<speed>1.360000</speed>
</trkpt>
<trkpt lat="22.037874" lon="104.002396">
<ele>543.6</ele>
<time>2011-04-26T06:44:25Z</time>
<desc>lat.=22.037874, lon.=104.002396, Alt.=520.992676m. Speed=6.336000m/h.</desc>
<speed>1.760000</speed>
</trkpt>
<trkpt lat="22.038025" lon="104.003113">
<ele>578.1</ele>
<time>2011-04-26T06:45:15Z</time>
<desc>lat.=22.038025, lon.=104.003113, Alt.=528.648926m. Speed=4.464000m/h.</desc>
<speed>1.240000</speed>
</trkpt>
<trkpt lat="22.038296" lon="104.003357">
<ele>570.8</ele>
<time>2011-04-26T06:45:35Z</time>
<desc>lat.=22.038296, lon.=104.003357, Alt.=529.352051m. Speed=4.248000m/h.</desc>
<speed>1.180000</speed>
</trkpt>
<trkpt lat="22.038523" lon="104.003906">
<ele>570.4</ele>
<time>2011-04-26T06:46:05Z</time>
<desc>lat.=22.038523, lon.=104.003906, Alt.=527.055176m. Speed=20.375999m/h.</desc>
<speed>5.660000</speed>
</trkpt>
<trkpt lat="22.038643" lon="104.005638">
<ele>556.7</ele>
<time>2011-04-26T06:46:30Z</time>
<desc>lat.=22.038643, lon.=104.005638, Alt.=525.023926m. Speed=10.332000m/h.</desc>
<speed>2.870000</speed>
</trkpt>
<trkpt lat="22.038853" lon="104.006248">
<ele>536.4</ele>
<time>2011-04-26T06:46:40Z</time>
<desc>lat.=22.038853, lon.=104.006248, Alt.=524.258301m. Speed=18.143999m/h.</desc>
<speed>5.040000</speed>
</trkpt>
<trkpt lat="22.038807" lon="104.008392">
<ele>519.6</ele>
<time>2011-04-26T06:47:15Z</time>
<desc>lat.=22.038807, lon.=104.008392, Alt.=521.148926m. Speed=11.196000m/h.</desc>
<speed>3.110000</speed>
</trkpt>
<trkpt lat="22.038349" lon="104.009666">
<ele>509.9</ele>
<time>2011-04-26T06:47:50Z</time>
<desc>lat.=22.038349, lon.=104.009666, Alt.=518.680176m. Speed=9.720000m/h.</desc>
<speed>2.700000</speed>
</trkpt>
<trkpt lat="22.037357" lon="104.010773">
<ele>495.3</ele>
<time>2011-04-26T06:48:10Z</time>
<desc>lat.=22.037357, lon.=104.010773, Alt.=511.988525m. Speed=31.823999m/h.</desc>
<speed>8.840000</speed>
</trkpt>
<trkpt lat="22.036709" lon="104.011078">
<ele>496.6</ele>
<time>2011-04-26T06:48:20Z</time>
<desc>lat.=22.036709, lon.=104.011078, Alt.=509.652588m. Speed=26.316000m/h.</desc>
<speed>7.310000</speed>
</trkpt>
<trkpt lat="22.036163" lon="104.011642">
<ele>494.6</ele>
<time>2011-04-26T06:48:30Z</time>
<desc>lat.=22.036163, lon.=104.011642, Alt.=507.535400m. Speed=33.948002m/h.</desc>
<speed>9.430001</speed>
</trkpt>
<trkpt lat="22.035288" lon="104.012985">
<ele>511.3</ele>
<time>2011-04-26T06:49:20Z</time>
<desc>lat.=22.035288, lon.=104.012985, Alt.=503.722900m. Speed=0.936000m/h.</desc>
<speed>0.260000</speed>
</trkpt>
<trkpt lat="22.035093" lon="104.014397">
<ele>530.1</ele>
<time>2011-04-26T06:50:45Z</time>
<desc>lat.=22.035093, lon.=104.014397, Alt.=507.582275m. Speed=5.112000m/h.</desc>
<speed>1.420000</speed>
</trkpt>
<trkpt lat="22.035322" lon="104.015228">
<ele>520.4</ele>
<time>2011-04-26T06:51:30Z</time>
<desc>lat.=22.035322, lon.=104.015228, Alt.=506.910400m. Speed=7.884000m/h.</desc>
<speed>2.190000</speed>
</trkpt>
<trkpt lat="22.034973" lon="104.016342">
<ele>518.8</ele>
<time>2011-04-26T06:51:55Z</time>
<desc>lat.=22.034973, lon.=104.016342, Alt.=501.496338m. Speed=23.112000m/h.</desc>
<speed>6.420000</speed>
</trkpt>
<trkpt lat="22.034578" lon="104.017174">
<ele>511.1</ele>
<time>2011-04-26T06:52:20Z</time>
<desc>lat.=22.034578, lon.=104.017174, Alt.=500.222900m. Speed=9.936000m/h.</desc>
<speed>2.760000</speed>
</trkpt>
<trkpt lat="22.033930" lon="104.017387">
<ele>517.8</ele>
<time>2011-04-26T06:52:40Z</time>
<desc>lat.=22.033930, lon.=104.017387, Alt.=497.855713m. Speed=5.436000m/h.</desc>
<speed>1.510000</speed>
</trkpt>
<trkpt lat="22.034016" lon="104.017952">
<ele>524.5</ele>
<time>2011-04-26T06:53:55Z</time>
<desc>lat.=22.034016, lon.=104.017952, Alt.=497.824463m. Speed=4.968000m/h.</desc>
<speed>1.380000</speed>
</trkpt>
<trkpt lat="22.033083" lon="104.019157">
<ele>557.1</ele>
<time>2011-04-26T06:55:55Z</time>
<desc>lat.=22.033083, lon.=104.019157, Alt.=492.933838m. Speed=6.336000m/h.</desc>
<speed>1.760000</speed>
</trkpt>
<trkpt lat="22.032722" lon="104.020126">
<ele>565.7</ele>
<time>2011-04-26T06:56:35Z</time>
<desc>lat.=22.032722, lon.=104.020126, Alt.=488.269775m. Speed=8.352000m/h.</desc>
<speed>2.320000</speed>
</trkpt>
<trkpt lat="22.032808" lon="104.021355">
<ele>559.2</ele>
<time>2011-04-26T06:57:10Z</time>
<desc>lat.=22.032808, lon.=104.021355, Alt.=479.426025m. Speed=14.220000m/h.</desc>
<speed>3.950000</speed>
</trkpt>
<trkpt lat="22.033957" lon="104.022293">
<ele>523.5</ele>
<time>2011-04-26T06:58:10Z</time>
<desc>lat.=22.033957, lon.=104.022293, Alt.=474.355713m. Speed=20.808001m/h.</desc>
<speed>5.780000</speed>
</trkpt>
<trkpt lat="22.034111" lon="104.022636">
<ele>528.0</ele>
<time>2011-04-26T06:58:15Z</time>
<desc>lat.=22.034111, lon.=104.022636, Alt.=473.488525m. Speed=30.924000m/h.</desc>
<speed>8.590000</speed>
</trkpt>
<trkpt lat="22.034369" lon="104.023376">
<ele>520.0</ele>
<time>2011-04-26T06:58:25Z</time>
<desc>lat.=22.034369, lon.=104.023376, Alt.=471.746338m. Speed=23.652000m/h.</desc>
<speed>6.570000</speed>
</trkpt>
<trkpt lat="22.034555" lon="104.025093">
<ele>502.0</ele>
<time>2011-04-26T06:58:45Z</time>
<desc>lat.=22.034555, lon.=104.025093, Alt.=469.957275m. Speed=34.056000m/h.</desc>
<speed>9.460000</speed>
</trkpt>
<trkpt lat="22.035007" lon="104.026329">
<ele>488.4</ele>
<time>2011-04-26T07:03:25Z</time>
<desc>lat.=22.035007, lon.=104.026329, Alt.=483.386963m. Speed=0.216000m/h.</desc>
<speed>0.060000</speed>
</trkpt>
<trkpt lat="22.034958" lon="104.026207">
<ele>489.0</ele>
<time>2011-04-26T07:06:45Z</time>
<desc>lat.=22.034958, lon.=104.026207, Alt.=516.289551m. Speed=0.432000m/h.</desc>
<speed>0.120000</speed>
</trkpt>
<trkpt lat="22.034712" lon="104.026489">
<ele>489.4</ele>
<time>2011-04-26T07:11:50Z</time>
<desc>lat.=22.034712, lon.=104.026489, Alt.=502.793213m. Speed=8.496000m/h.</desc>
<speed>2.360000</speed>
</trkpt>
<trkpt lat="22.033773" lon="104.026825">
<ele>498.9</ele>
<time>2011-04-26T07:13:00Z</time>
<desc>lat.=22.033773, lon.=104.026825, Alt.=498.183838m. Speed=4.860000m/h.</desc>
<speed>1.350000</speed>
</trkpt>
<trkpt lat="22.032663" lon="104.027550">
<ele>502.1</ele>
<time>2011-04-26T07:14:05Z</time>
<desc>lat.=22.032663, lon.=104.027550, Alt.=507.254150m. Speed=9.288000m/h.</desc>
<speed>2.580000</speed>
</trkpt>
<trkpt lat="22.031942" lon="104.027580">
<ele>500.4</ele>
<time>2011-04-26T07:14:25Z</time>
<desc>lat.=22.031942, lon.=104.027580, Alt.=508.566650m. Speed=23.327999m/h.</desc>
<speed>6.480000</speed>
</trkpt>
<trkpt lat="22.031597" lon="104.027771">
<ele>505.5</ele>
<time>2011-04-26T07:14:35Z</time>
<desc>lat.=22.031597, lon.=104.027771, Alt.=513.320801m. Speed=9.180000m/h.</desc>
<speed>2.550000</speed>
</trkpt>
<trkpt lat="22.031410" lon="104.029121">
<ele>492.5</ele>
<time>2011-04-26T07:15:05Z</time>
<desc>lat.=22.031410, lon.=104.029121, Alt.=505.121338m. Speed=9.900000m/h.</desc>
<speed>2.750000</speed>
</trkpt>
<trkpt lat="22.031252" lon="104.029366">
<ele>494.2</ele>
<time>2011-04-26T07:17:40Z</time>
<desc>lat.=22.031252, lon.=104.029366, Alt.=505.121338m. Speed=9.252000m/h.</desc>
<speed>2.570000</speed>
</trkpt>
<trkpt lat="22.030790" lon="104.029610">
<ele>504.4</ele>
<time>2011-04-26T07:17:50Z</time>
<desc>lat.=22.030790, lon.=104.029610, Alt.=504.074463m. Speed=17.964001m/h.</desc>
<speed>4.990000</speed>
</trkpt>
<trkpt lat="22.030514" lon="104.031189">
<ele>492.9</ele>
<time>2011-04-26T07:18:10Z</time>
<desc>lat.=22.030514, lon.=104.031189, Alt.=499.785400m. Speed=9.612000m/h.</desc>
<speed>2.670000</speed>
</trkpt>
<trkpt lat="22.029970" lon="104.032959">
<ele>483.7</ele>
<time>2011-04-26T07:18:35Z</time>
<desc>lat.=22.029970, lon.=104.032959, Alt.=494.824463m. Speed=25.091999m/h.</desc>
<speed>6.970000</speed>
</trkpt>
<trkpt lat="22.029224" lon="104.034088">
<ele>482.6</ele>
<time>2011-04-26T07:18:55Z</time>
<desc>lat.=22.029224, lon.=104.034088, Alt.=493.308838m. Speed=18.864000m/h.</desc>
<speed>5.240000</speed>
</trkpt>
<trkpt lat="22.029181" lon="104.034882">
<ele>470.0</ele>
<time>2011-04-26T07:19:05Z</time>
<desc>lat.=22.029181, lon.=104.034882, Alt.=493.097900m. Speed=21.851999m/h.</desc>
<speed>6.070000</speed>
</trkpt>
<trkpt lat="22.028685" lon="104.035965">
<ele>462.5</ele>
<time>2011-04-26T07:19:25Z</time>
<desc>lat.=22.028685, lon.=104.035965, Alt.=489.847900m. Speed=17.712000m/h.</desc>
<speed>4.920000</speed>
</trkpt>
<trkpt lat="22.028252" lon="104.036095">
<ele>454.7</ele>
<time>2011-04-26T07:19:35Z</time>
<desc>lat.=22.028252, lon.=104.036095, Alt.=485.683838m. Speed=12.564000m/h.</desc>
<speed>3.490000</speed>
</trkpt>
<trkpt lat="22.026951" lon="104.035721">
<ele>455.1</ele>
<time>2011-04-26T07:20:25Z</time>
<desc>lat.=22.026951, lon.=104.035721, Alt.=464.691650m. Speed=13.968000m/h.</desc>
<speed>3.880000</speed>
</trkpt>
<trkpt lat="22.026760" lon="104.035805">
<ele>452.1</ele>
<time>2011-04-26T07:20:30Z</time>
<desc>lat.=22.026760, lon.=104.035805, Alt.=462.472900m. Speed=14.868000m/h.</desc>
<speed>4.130000</speed>
</trkpt>
<trkpt lat="22.025595" lon="104.036797">
<ele>463.2</ele>
<time>2011-04-26T07:25:25Z</time>
<desc>lat.=22.025595, lon.=104.036797, Alt.=447.152588m. Speed=11.844000m/h.</desc>
<speed>3.290000</speed>
</trkpt>
<trkpt lat="22.025232" lon="104.037483">
<ele>464.6</ele>
<time>2011-04-26T07:25:45Z</time>
<desc>lat.=22.025232, lon.=104.037483, Alt.=453.121338m. Speed=12.924000m/h.</desc>
<speed>3.590000</speed>
</trkpt>
<trkpt lat="22.025034" lon="104.038261">
<ele>459.5</ele>
<time>2011-04-26T07:26:05Z</time>
<desc>lat.=22.025034, lon.=104.038261, Alt.=451.144775m. Speed=6.696000m/h.</desc>
<speed>1.860000</speed>
</trkpt>
<trkpt lat="22.024666" lon="104.038620">
<ele>457.2</ele>
<time>2011-04-26T07:26:20Z</time>
<desc>lat.=22.024666, lon.=104.038620, Alt.=454.183838m. Speed=11.520000m/h.</desc>
<speed>3.200000</speed>
</trkpt>
<trkpt lat="22.022352" lon="104.039001">
<ele>462.6</ele>
<time>2011-04-26T07:27:40Z</time>
<desc>lat.=22.022352, lon.=104.039001, Alt.=477.590088m. Speed=12.420000m/h.</desc>
<speed>3.450000</speed>
</trkpt>
<trkpt lat="22.021622" lon="104.039413">
<ele>460.4</ele>
<time>2011-04-26T07:28:00Z</time>
<desc>lat.=22.021622, lon.=104.039413, Alt.=479.707275m. Speed=22.968000m/h.</desc>
<speed>6.380000</speed>
</trkpt>
<trkpt lat="22.020758" lon="104.040398">
<ele>456.4</ele>
<time>2011-04-26T07:28:20Z</time>
<desc>lat.=22.020758, lon.=104.040398, Alt.=471.254150m. Speed=24.372000m/h.</desc>
<speed>6.770000</speed>
</trkpt>
<trkpt lat="22.019361" lon="104.041481">
<ele>458.2</ele>
<time>2011-04-26T07:29:00Z</time>
<desc>lat.=22.019361, lon.=104.041481, Alt.=451.394775m. Speed=11.556000m/h.</desc>
<speed>3.210000</speed>
</trkpt>
<trkpt lat="22.018660" lon="104.042496">
<ele>457.5</ele>
<time>2011-04-26T07:29:35Z</time>
<desc>lat.=22.018660, lon.=104.042496, Alt.=453.035400m. Speed=13.896000m/h.</desc>
<speed>3.860000</speed>
</trkpt>
<trkpt lat="22.017914" lon="104.042854">
<ele>459.4</ele>
<time>2011-04-26T07:30:00Z</time>
<desc>lat.=22.017914, lon.=104.042854, Alt.=461.511963m. Speed=10.728000m/h.</desc>
<speed>2.980000</speed>
</trkpt>
<trkpt lat="22.016653" lon="104.044403">
<ele>466.8</ele>
<time>2011-04-26T07:31:00Z</time>
<desc>lat.=22.016653, lon.=104.044403, Alt.=486.871338m. Speed=11.088000m/h.</desc>
<speed>3.080000</speed>
</trkpt>
<trkpt lat="22.016352" lon="104.045105">
<ele>469.6</ele>
<time>2011-04-26T07:31:25Z</time>
<desc>lat.=22.016352, lon.=104.045105, Alt.=496.754150m. Speed=7.452000m/h.</desc>
<speed>2.070000</speed>
</trkpt>
<trkpt lat="22.015577" lon="104.045753">
<ele>464.7</ele>
<time>2011-04-26T07:31:50Z</time>
<desc>lat.=22.015577, lon.=104.045753, Alt.=497.160400m. Speed=15.912000m/h.</desc>
<speed>4.420000</speed>
</trkpt>
<trkpt lat="22.015432" lon="104.046165">
<ele>470.2</ele>
<time>2011-04-26T07:32:00Z</time>
<desc>lat.=22.015432, lon.=104.046165, Alt.=496.457275m. Speed=8.964000m/h.</desc>
<speed>2.490000</speed>
</trkpt>
<trkpt lat="22.015518" lon="104.047516">
<ele>469.8</ele>
<time>2011-04-26T07:32:40Z</time>
<desc>lat.=22.015518, lon.=104.047516, Alt.=474.019775m. Speed=11.052000m/h.</desc>
<speed>3.070000</speed>
</trkpt>
<trkpt lat="22.014254" lon="104.049744">
<ele>468.8</ele>
<time>2011-04-26T07:33:50Z</time>
<desc>lat.=22.014254, lon.=104.049744, Alt.=474.293213m. Speed=13.968000m/h.</desc>
<speed>3.880000</speed>
</trkpt>
<trkpt lat="22.013071" lon="104.050812">
<ele>469.1</ele>
<time>2011-04-26T07:34:35Z</time>
<desc>lat.=22.013071, lon.=104.050812, Alt.=466.363525m. Speed=6.192000m/h.</desc>
<speed>1.720000</speed>
</trkpt>
<trkpt lat="22.011093" lon="104.050995">
<ele>469.9</ele>
<time>2011-04-26T07:35:45Z</time>
<desc>lat.=22.011093, lon.=104.050995, Alt.=476.347900m. Speed=4.860000m/h.</desc>
<speed>1.350000</speed>
</trkpt>
<trkpt lat="22.009157" lon="104.052551">
<ele>461.3</ele>
<time>2011-04-26T07:39:15Z</time>
<desc>lat.=22.009157, lon.=104.052551, Alt.=469.582275m. Speed=11.088000m/h.</desc>
<speed>3.080000</speed>
</trkpt>
<trkpt lat="22.008558" lon="104.053246">
<ele>464.7</ele>
<time>2011-04-26T07:39:40Z</time>
<desc>lat.=22.008558, lon.=104.053246, Alt.=468.426025m. Speed=4.104000m/h.</desc>
<speed>1.140000</speed>
</trkpt>
<trkpt lat="22.008396" lon="104.053528">
<ele>463.6</ele>
<time>2011-04-26T07:40:05Z</time>
<desc>lat.=22.008396, lon.=104.053528, Alt.=469.277588m. Speed=9.396000m/h.</desc>
<speed>2.610000</speed>
</trkpt>
<trkpt lat="22.008339" lon="104.054726">
<ele>464.8</ele>
<time>2011-04-26T07:40:35Z</time>
<desc>lat.=22.008339, lon.=104.054726, Alt.=469.144775m. Speed=13.608000m/h.</desc>
<speed>3.780000</speed>
</trkpt>
<trkpt lat="22.007891" lon="104.055283">
<ele>465.8</ele>
<time>2011-04-26T07:41:00Z</time>
<desc>lat.=22.007891, lon.=104.055283, Alt.=474.027588m. Speed=13.212000m/h.</desc>
<speed>3.670000</speed>
</trkpt>
<trkpt lat="22.007793" lon="104.055809">
<ele>457.4</ele>
<time>2011-04-26T07:41:10Z</time>
<desc>lat.=22.007793, lon.=104.055809, Alt.=475.769775m. Speed=22.752001m/h.</desc>
<speed>6.320000</speed>
</trkpt>
<trkpt lat="22.007999" lon="104.056480">
<ele>451.5</ele>
<time>2011-04-26T07:41:20Z</time>
<desc>lat.=22.007999, lon.=104.056480, Alt.=476.480713m. Speed=34.200001m/h.</desc>
<speed>9.500000</speed>
</trkpt>
<trkpt lat="22.008615" lon="104.057312">
<ele>448.2</ele>
<time>2011-04-26T07:41:35Z</time>
<desc>lat.=22.008615, lon.=104.057312, Alt.=477.347900m. Speed=20.700001m/h.</desc>
<speed>5.750000</speed>
</trkpt>
<trkpt lat="22.008802" lon="104.058006">
<ele>447.0</ele>
<time>2011-04-26T07:41:45Z</time>
<desc>lat.=22.008802, lon.=104.058006, Alt.=473.269775m. Speed=23.507999m/h.</desc>
<speed>6.530000</speed>
</trkpt>
<trkpt lat="22.008232" lon="104.059074">
<ele>444.2</ele>
<time>2011-04-26T07:42:15Z</time>
<desc>lat.=22.008232, lon.=104.059074, Alt.=458.527588m. Speed=10.764000m/h.</desc>
<speed>2.990000</speed>
</trkpt>
<trkpt lat="22.007280" lon="104.059792">
<ele>446.5</ele>
<time>2011-04-26T07:42:50Z</time>
<desc>lat.=22.007280, lon.=104.059792, Alt.=444.449463m. Speed=13.968000m/h.</desc>
<speed>3.880000</speed>
</trkpt>
<trkpt lat="22.006880" lon="104.060516">
<ele>437.8</ele>
<time>2011-04-26T07:43:35Z</time>
<desc>lat.=22.006880, lon.=104.060516, Alt.=432.902588m. Speed=0.432000m/h.</desc>
<speed>0.120000</speed>
</trkpt>
<trkpt lat="22.006815" lon="104.060997">
<ele>443.6</ele>
<time>2011-04-26T07:43:50Z</time>
<desc>lat.=22.006815, lon.=104.060997, Alt.=431.441650m. Speed=12.276000m/h.</desc>
<speed>3.410000</speed>
</trkpt>
<trkpt lat="22.007263" lon="104.061905">
<ele>457.0</ele>
<time>2011-04-26T07:44:30Z</time>
<desc>lat.=22.007263, lon.=104.061905, Alt.=425.121338m. Speed=5.652000m/h.</desc>
<speed>1.570000</speed>
</trkpt>
<trkpt lat="22.006861" lon="104.062874">
<ele>457.8</ele>
<time>2011-04-26T07:45:05Z</time>
<desc>lat.=22.006861, lon.=104.062874, Alt.=422.683838m. Speed=15.588000m/h.</desc>
<speed>4.330000</speed>
</trkpt>
<trkpt lat="22.005955" lon="104.063911">
<ele>437.5</ele>
<time>2011-04-26T07:45:25Z</time>
<desc>lat.=22.005955, lon.=104.063911, Alt.=423.183838m. Speed=15.984000m/h.</desc>
<speed>4.440000</speed>
</trkpt>
<trkpt lat="22.005419" lon="104.064102">
<ele>457.4</ele>
<time>2011-04-26T07:45:45Z</time>
<desc>lat.=22.005419, lon.=104.064102, Alt.=425.090088m. Speed=8.532000m/h.</desc>
<speed>2.370000</speed>
</trkpt>
<trkpt lat="22.004944" lon="104.064873">
<ele>451.0</ele>
<time>2011-04-26T07:46:15Z</time>
<desc>lat.=22.004944, lon.=104.064873, Alt.=427.879150m. Speed=9.360000m/h.</desc>
<speed>2.600000</speed>
</trkpt>
<trkpt lat="22.004856" lon="104.066200">
<ele>452.4</ele>
<time>2011-04-26T07:47:15Z</time>
<desc>lat.=22.004856, lon.=104.066200, Alt.=432.840088m. Speed=9.684000m/h.</desc>
<speed>2.690000</speed>
</trkpt>
<trkpt lat="22.005234" lon="104.066910">
<ele>463.8</ele>
<time>2011-04-26T07:47:55Z</time>
<desc>lat.=22.005234, lon.=104.066910, Alt.=437.480713m. Speed=4.392000m/h.</desc>
<speed>1.220000</speed>
</trkpt>
<trkpt lat="22.005161" lon="104.071106">
<ele>461.6</ele>
<time>2011-04-26T07:58:20Z</time>
<desc>lat.=22.005161, lon.=104.071106, Alt.=462.527588m. Speed=18.972000m/h.</desc>
<speed>5.270000</speed>
</trkpt>
<trkpt lat="22.005497" lon="104.071739">
<ele>465.2</ele>
<time>2011-04-26T07:58:50Z</time>
<desc>lat.=22.005497, lon.=104.071739, Alt.=459.222900m. Speed=5.724000m/h.</desc>
<speed>1.590000</speed>
</trkpt>
<trkpt lat="22.005125" lon="104.072433">
<ele>475.5</ele>
<time>2011-04-26T07:59:30Z</time>
<desc>lat.=22.005125, lon.=104.072433, Alt.=460.566650m. Speed=7.740000m/h.</desc>
<speed>2.150000</speed>
</trkpt>
<trkpt lat="22.005346" lon="104.073082">
<ele>479.5</ele>
<time>2011-04-26T08:00:05Z</time>
<desc>lat.=22.005346, lon.=104.073082, Alt.=467.230713m. Speed=7.272000m/h.</desc>
<speed>2.020000</speed>
</trkpt>
<trkpt lat="22.005781" lon="104.073051">
<ele>491.8</ele>
<time>2011-04-26T08:00:35Z</time>
<desc>lat.=22.005781, lon.=104.073051, Alt.=470.441650m. Speed=4.968000m/h.</desc>
<speed>1.380000</speed>
</trkpt>
<trkpt lat="22.006201" lon="104.072823">
<ele>483.0</ele>
<time>2011-04-26T08:01:00Z</time>
<desc>lat.=22.006201, lon.=104.072823, Alt.=473.090088m. Speed=6.732000m/h.</desc>
<speed>1.870000</speed>
</trkpt>
<trkpt lat="22.006464" lon="104.072929">
<ele>492.0</ele>
<time>2011-04-26T08:01:15Z</time>
<desc>lat.=22.006464, lon.=104.072929, Alt.=473.394775m. Speed=4.500000m/h.</desc>
<speed>1.250000</speed>
</trkpt>
<trkpt lat="22.006590" lon="104.073723">
<ele>503.1</ele>
<time>2011-04-26T08:02:45Z</time>
<desc>lat.=22.006590, lon.=104.073723, Alt.=482.691650m. Speed=0.468000m/h.</desc>
<speed>0.130000</speed>
</trkpt>
<trkpt lat="22.007364" lon="104.074181">
<ele>517.0</ele>
<time>2011-04-26T08:03:55Z</time>
<desc>lat.=22.007364, lon.=104.074181, Alt.=479.511963m. Speed=26.351999m/h.</desc>
<speed>7.320000</speed>
</trkpt>
<trkpt lat="22.008448" lon="104.075241">
<ele>452.4</ele>
<time>2011-04-26T08:04:10Z</time>
<desc>lat.=22.008448, lon.=104.075241, Alt.=475.511963m. Speed=41.147999m/h.</desc>
<speed>11.430000</speed>
</trkpt>
<trkpt lat="22.009840" lon="104.076256">
<ele>441.7</ele>
<time>2011-04-26T08:04:25Z</time>
<desc>lat.=22.009840, lon.=104.076256, Alt.=468.855713m. Speed=25.379999m/h.</desc>
<speed>7.050000</speed>
</trkpt>
<trkpt lat="22.010952" lon="104.076668">
<ele>436.0</ele>
<time>2011-04-26T08:05:05Z</time>
<desc>lat.=22.010952, lon.=104.076668, Alt.=454.238525m. Speed=28.440001m/h.</desc>
<speed>7.900000</speed>
</trkpt>
<trkpt lat="22.011950" lon="104.076698">
<ele>435.6</ele>
<time>2011-04-26T08:05:40Z</time>
<desc>lat.=22.011950, lon.=104.076698, Alt.=442.660400m. Speed=0.036000m/h.</desc>
<speed>0.010000</speed>
</trkpt>
<trkpt lat="22.012587" lon="104.077164">
<ele>429.3</ele>
<time>2011-04-26T08:09:55Z</time>
<desc>lat.=22.012587, lon.=104.077164, Alt.=439.816650m. Speed=0.360000m/h.</desc>
<speed>0.100000</speed>
</trkpt>
<trkpt lat="22.012691" lon="104.077026">
<ele>425.8</ele>
<time>2011-04-26T08:13:10Z</time>
<desc>lat.=22.012691, lon.=104.077026, Alt.=432.465088m. Speed=2.772000m/h.</desc>
<speed>0.770000</speed>
</trkpt>
<trkpt lat="22.012907" lon="104.077232">
<ele>423.7</ele>
<time>2011-04-26T08:13:25Z</time>
<desc>lat.=22.012907, lon.=104.077232, Alt.=429.933838m. Speed=10.512000m/h.</desc>
<speed>2.920000</speed>
</trkpt>
<trkpt lat="22.013739" lon="104.077461">
<ele>431.1</ele>
<time>2011-04-26T08:14:05Z</time>
<desc>lat.=22.013739, lon.=104.077461, Alt.=412.777588m. Speed=8.100000m/h.</desc>
<speed>2.250000</speed>
</trkpt>
<trkpt lat="22.014278" lon="104.077911">
<ele>445.9</ele>
<time>2011-04-26T08:14:30Z</time>
<desc>lat.=22.014278, lon.=104.077911, Alt.=409.910400m. Speed=10.296000m/h.</desc>
<speed>2.860000</speed>
</trkpt>
<trkpt lat="22.015444" lon="104.077545">
<ele>434.8</ele>
<time>2011-04-26T08:15:20Z</time>
<desc>lat.=22.015444, lon.=104.077545, Alt.=411.824463m. Speed=8.352000m/h.</desc>
<speed>2.320000</speed>
</trkpt>
<trkpt lat="22.017145" lon="104.076538">
<ele>426.2</ele>
<time>2011-04-26T08:16:30Z</time>
<desc>lat.=22.017145, lon.=104.076538, Alt.=420.340088m. Speed=17.856001m/h.</desc>
<speed>4.960000</speed>
</trkpt>
<trkpt lat="22.018211" lon="104.076210">
<ele>412.3</ele>
<time>2011-04-26T08:16:50Z</time>
<desc>lat.=22.018211, lon.=104.076210, Alt.=418.808838m. Speed=14.832000m/h.</desc>
<speed>4.120000</speed>
</trkpt>
<trkpt lat="22.018965" lon="104.076515">
<ele>432.7</ele>
<time>2011-04-26T08:17:25Z</time>
<desc>lat.=22.018965, lon.=104.076515, Alt.=416.722900m. Speed=4.716000m/h.</desc>
<speed>1.310000</speed>
</trkpt>
<trkpt lat="22.019279" lon="104.077263">
<ele>432.1</ele>
<time>2011-04-26T08:18:30Z</time>
<desc>lat.=22.019279, lon.=104.077263, Alt.=416.816650m. Speed=3.744000m/h.</desc>
<speed>1.040000</speed>
</trkpt>
<trkpt lat="22.019936" lon="104.077614">
<ele>458.5</ele>
<time>2011-04-26T08:19:50Z</time>
<desc>lat.=22.019936, lon.=104.077614, Alt.=419.066650m. Speed=3.636000m/h.</desc>
<speed>1.010000</speed>
</trkpt>
<trkpt lat="22.020605" lon="104.077690">
<ele>461.2</ele>
<time>2011-04-26T08:21:05Z</time>
<desc>lat.=22.020605, lon.=104.077690, Alt.=432.965088m. Speed=3.564000m/h.</desc>
<speed>0.990000</speed>
</trkpt>
<trkpt lat="22.021482" lon="104.077347">
<ele>458.1</ele>
<time>2011-04-26T08:23:05Z</time>
<desc>lat.=22.021482, lon.=104.077347, Alt.=448.824463m. Speed=1.872000m/h.</desc>
<speed>0.520000</speed>
</trkpt>
<trkpt lat="22.022198" lon="104.077446">
<ele>474.9</ele>
<time>2011-04-26T08:24:25Z</time>
<desc>lat.=22.022198, lon.=104.077446, Alt.=457.426025m. Speed=3.744000m/h.</desc>
<speed>1.040000</speed>
</trkpt>
<trkpt lat="22.022484" lon="104.077660">
<ele>492.2</ele>
<time>2011-04-26T08:24:40Z</time>
<desc>lat.=22.022484, lon.=104.077660, Alt.=459.394775m. Speed=6.084000m/h.</desc>
<speed>1.690000</speed>
</trkpt>
<trkpt lat="22.023012" lon="104.078590">
<ele>492.3</ele>
<time>2011-04-26T08:25:35Z</time>
<desc>lat.=22.023012, lon.=104.078590, Alt.=467.394775m. Speed=4.500000m/h.</desc>
<speed>1.250000</speed>
</trkpt>
<trkpt lat="22.023575" lon="104.078949">
<ele>485.7</ele>
<time>2011-04-26T08:26:10Z</time>
<desc>lat.=22.023575, lon.=104.078949, Alt.=469.933838m. Speed=5.904000m/h.</desc>
<speed>1.640000</speed>
</trkpt>
<trkpt lat="22.024254" lon="104.080261">
<ele>507.6</ele>
<time>2011-04-26T08:42:35Z</time>
<desc>lat.=22.024254, lon.=104.080261, Alt.=484.933838m. Speed=14.796000m/h.</desc>
<speed>4.110000</speed>
</trkpt>
<trkpt lat="22.024889" lon="104.080818">
<ele>494.4</ele>
<time>2011-04-26T08:42:55Z</time>
<desc>lat.=22.024889, lon.=104.080818, Alt.=485.222900m. Speed=12.060000m/h.</desc>
<speed>3.350000</speed>
</trkpt>
<trkpt lat="22.025211" lon="104.081543">
<ele>487.3</ele>
<time>2011-04-26T08:43:15Z</time>
<desc>lat.=22.025211, lon.=104.081543, Alt.=486.246338m. Speed=11.376000m/h.</desc>
<speed>3.160000</speed>
</trkpt>
<trkpt lat="22.026270" lon="104.081444">
<ele>492.7</ele>
<time>2011-04-26T08:43:35Z</time>
<desc>lat.=22.026270, lon.=104.081444, Alt.=485.105713m. Speed=18.252001m/h.</desc>
<speed>5.070000</speed>
</trkpt>
<trkpt lat="22.026569" lon="104.081558">
<ele>490.0</ele>
<time>2011-04-26T08:43:40Z</time>
<desc>lat.=22.026569, lon.=104.081558, Alt.=485.043213m. Speed=21.851999m/h.</desc>
<speed>6.070000</speed>
</trkpt>
<trkpt lat="22.026842" lon="104.081421">
<ele>472.9</ele>
<time>2011-04-26T08:43:45Z</time>
<desc>lat.=22.026842, lon.=104.081421, Alt.=485.168213m. Speed=18.540001m/h.</desc>
<speed>5.150000</speed>
</trkpt>
<trkpt lat="22.027067" lon="104.080544">
<ele>462.1</ele>
<time>2011-04-26T08:44:00Z</time>
<desc>lat.=22.027067, lon.=104.080544, Alt.=479.941650m. Speed=13.572000m/h.</desc>
<speed>3.770000</speed>
</trkpt>
<trkpt lat="22.027355" lon="104.080307">
<ele>473.2</ele>
<time>2011-04-26T08:44:20Z</time>
<desc>lat.=22.027355, lon.=104.080307, Alt.=472.051025m. Speed=21.132000m/h.</desc>
<speed>5.870000</speed>
</trkpt>
<trkpt lat="22.028749" lon="104.080559">
<ele>453.9</ele>
<time>2011-04-26T08:44:45Z</time>
<desc>lat.=22.028749, lon.=104.080559, Alt.=460.199463m. Speed=17.424000m/h.</desc>
<speed>4.840000</speed>
</trkpt>
<trkpt lat="22.029366" lon="104.080399">
<ele>449.7</ele>
<time>2011-04-26T08:45:00Z</time>
<desc>lat.=22.029366, lon.=104.080399, Alt.=453.605713m. Speed=16.596001m/h.</desc>
<speed>4.610000</speed>
</trkpt>
<trkpt lat="22.031635" lon="104.081024">
<ele>405.4</ele>
<time>2011-04-26T08:45:40Z</time>
<desc>lat.=22.031635, lon.=104.081024, Alt.=448.566650m. Speed=15.984000m/h.</desc>
<speed>4.440000</speed>
</trkpt>
<trkpt lat="22.033018" lon="104.082344">
<ele>398.3</ele>
<time>2011-04-26T08:46:10Z</time>
<desc>lat.=22.033018, lon.=104.082344, Alt.=416.730713m. Speed=18.396000m/h.</desc>
<speed>5.110000</speed>
</trkpt>
<trkpt lat="22.033443" lon="104.082314">
<ele>409.1</ele>
<time>2011-04-26T08:46:30Z</time>
<desc>lat.=22.033443, lon.=104.082314, Alt.=411.418213m. Speed=4.356000m/h.</desc>
<speed>1.210000</speed>
</trkpt>
<trkpt lat="22.034210" lon="104.082787">
<ele>408.3</ele>
<time>2011-04-26T08:47:35Z</time>
<desc>lat.=22.034210, lon.=104.082787, Alt.=415.777588m. Speed=7.848000m/h.</desc>
<speed>2.180000</speed>
</trkpt>
<trkpt lat="22.034441" lon="104.083519">
<ele>400.1</ele>
<time>2011-04-26T08:47:50Z</time>
<desc>lat.=22.034441, lon.=104.083519, Alt.=407.511963m. Speed=23.868000m/h.</desc>
<speed>6.630000</speed>
</trkpt>
<trkpt lat="22.035889" lon="104.085007">
<ele>432.7</ele>
<time>2011-04-26T08:48:25Z</time>
<desc>lat.=22.035889, lon.=104.085007, Alt.=395.957275m. Speed=17.820000m/h.</desc>
<speed>4.950000</speed>
</trkpt>
<trkpt lat="22.036879" lon="104.086456">
<ele>423.5</ele>
<time>2011-04-26T08:49:50Z</time>
<desc>lat.=22.036879, lon.=104.086456, Alt.=384.863525m. Speed=4.212000m/h.</desc>
<speed>1.170000</speed>
</trkpt>
<trkpt lat="22.037289" lon="104.088005">
<ele>429.4</ele>
<time>2011-04-26T08:50:35Z</time>
<desc>lat.=22.037289, lon.=104.088005, Alt.=378.136963m. Speed=15.120000m/h.</desc>
<speed>4.200000</speed>
</trkpt>
<trkpt lat="22.038404" lon="104.088890">
<ele>400.8</ele>
<time>2011-04-26T08:50:55Z</time>
<desc>lat.=22.038404, lon.=104.088890, Alt.=373.152588m. Speed=25.704000m/h.</desc>
<speed>7.140000</speed>
</trkpt>
<trkpt lat="22.038507" lon="104.089226">
<ele>388.6</ele>
<time>2011-04-26T08:51:00Z</time>
<desc>lat.=22.038507, lon.=104.089226, Alt.=370.347900m. Speed=23.436001m/h.</desc>
<speed>6.510000</speed>
</trkpt>
<trkpt lat="22.038313" lon="104.089806">
<ele>386.0</ele>
<time>2011-04-26T08:51:10Z</time>
<desc>lat.=22.038313, lon.=104.089806, Alt.=364.082275m. Speed=19.908001m/h.</desc>
<speed>5.530000</speed>
</trkpt>
<trkpt lat="22.038708" lon="104.089920">
<ele>382.2</ele>
<time>2011-04-26T08:51:20Z</time>
<desc>lat.=22.038708, lon.=104.089920, Alt.=366.136963m. Speed=15.624000m/h.</desc>
<speed>4.340000</speed>
</trkpt>
<trkpt lat="22.039108" lon="104.090302">
<ele>377.3</ele>
<time>2011-04-26T08:51:30Z</time>
<desc>lat.=22.039108, lon.=104.090302, Alt.=364.715088m. Speed=19.728001m/h.</desc>
<speed>5.480000</speed>
</trkpt>
<trkpt lat="22.039953" lon="104.090416">
<ele>370.4</ele>
<time>2011-04-26T08:51:40Z</time>
<desc>lat.=22.039953, lon.=104.090416, Alt.=363.246338m. Speed=28.511999m/h.</desc>
<speed>7.920000</speed>
</trkpt>
<trkpt lat="22.041441" lon="104.091827">
<ele>358.8</ele>
<time>2011-04-26T08:52:00Z</time>
<desc>lat.=22.041441, lon.=104.091827, Alt.=356.199463m. Speed=30.743999m/h.</desc>
<speed>8.540000</speed>
</trkpt>
<trkpt lat="22.041796" lon="104.093063">
<ele>367.2</ele>
<time>2011-04-26T08:53:00Z</time>
<desc>lat.=22.041796, lon.=104.093063, Alt.=358.043213m. Speed=4.464000m/h.</desc>
<speed>1.240000</speed>
</trkpt>
<trkpt lat="22.042740" lon="104.093880">
<ele>381.8</ele>
<time>2011-04-26T08:54:55Z</time>
<desc>lat.=22.042740, lon.=104.093880, Alt.=365.847900m. Speed=3.420000m/h.</desc>
<speed>0.950000</speed>
</trkpt>
<trkpt lat="22.043020" lon="104.094650">
<ele>398.0</ele>
<time>2011-04-26T08:56:20Z</time>
<desc>lat.=22.043020, lon.=104.094650, Alt.=377.340088m. Speed=1.800000m/h.</desc>
<speed>0.500000</speed>
</trkpt>
<trkpt lat="22.044193" lon="104.096367">
<ele>408.3</ele>
<time>2011-04-26T09:10:55Z</time>
<desc>lat.=22.044193, lon.=104.096367, Alt.=401.488525m. Speed=0.756000m/h.</desc>
<speed>0.210000</speed>
</trkpt>
<trkpt lat="22.044172" lon="104.097023">
<ele>410.9</ele>
<time>2011-04-26T09:11:15Z</time>
<desc>lat.=22.044172, lon.=104.097023, Alt.=399.144775m. Speed=24.624001m/h.</desc>
<speed>6.840000</speed>
</trkpt>
<trkpt lat="22.044727" lon="104.098892">
<ele>395.0</ele>
<time>2011-04-26T09:11:50Z</time>
<desc>lat.=22.044727, lon.=104.098892, Alt.=382.691650m. Speed=15.876000m/h.</desc>
<speed>4.410000</speed>
</trkpt>
<trkpt lat="22.044626" lon="104.099251">
<ele>387.6</ele>
<time>2011-04-26T09:12:00Z</time>
<desc>lat.=22.044626, lon.=104.099251, Alt.=379.246338m. Speed=16.488001m/h.</desc>
<speed>4.580000</speed>
</trkpt>
<trkpt lat="22.042917" lon="104.101448">
<ele>369.6</ele>
<time>2011-04-26T09:12:35Z</time>
<desc>lat.=22.042917, lon.=104.101448, Alt.=368.386963m. Speed=26.136000m/h.</desc>
<speed>7.260000</speed>
</trkpt>
<trkpt lat="22.042597" lon="104.101555">
<ele>361.1</ele>
<time>2011-04-26T09:12:40Z</time>
<desc>lat.=22.042597, lon.=104.101555, Alt.=367.722900m. Speed=26.172001m/h.</desc>
<speed>7.270000</speed>
</trkpt>
<trkpt lat="22.041845" lon="104.101379">
<ele>363.5</ele>
<time>2011-04-26T09:12:50Z</time>
<desc>lat.=22.041845, lon.=104.101379, Alt.=366.004150m. Speed=37.655998m/h.</desc>
<speed>10.460000</speed>
</trkpt>
<trkpt lat="22.041378" lon="104.101540">
<ele>356.9</ele>
<time>2011-04-26T09:12:55Z</time>
<desc>lat.=22.041378, lon.=104.101540, Alt.=364.113525m. Speed=37.619999m/h.</desc>
<speed>10.450000</speed>
</trkpt>
<trkpt lat="22.041014" lon="104.101906">
<ele>357.5</ele>
<time>2011-04-26T09:13:00Z</time>
<desc>lat.=22.041014, lon.=104.101906, Alt.=362.535400m. Speed=39.672001m/h.</desc>
<speed>11.020000</speed>
</trkpt>
<trkpt lat="22.040958" lon="104.102303">
<ele>359.7</ele>
<time>2011-04-26T09:13:05Z</time>
<desc>lat.=22.040958, lon.=104.102303, Alt.=358.746338m. Speed=30.528000m/h.</desc>
<speed>8.480000</speed>
</trkpt>
<trkpt lat="22.041241" lon="104.103241">
<ele>345.5</ele>
<time>2011-04-26T09:13:15Z</time>
<desc>lat.=22.041241, lon.=104.103241, Alt.=350.676025m. Speed=37.476002m/h.</desc>
<speed>10.410000</speed>
</trkpt>
<trkpt lat="22.040955" lon="104.104538">
<ele>330.0</ele>
<time>2011-04-26T09:13:30Z</time>
<desc>lat.=22.040955, lon.=104.104538, Alt.=334.527588m. Speed=36.612000m/h.</desc>
<speed>10.170000</speed>
</trkpt>
<trkpt lat="22.041010" lon="104.105042">
<ele>327.4</ele>
<time>2011-04-26T09:13:35Z</time>
<desc>lat.=22.041010, lon.=104.105042, Alt.=328.488525m. Speed=39.348000m/h.</desc>
<speed>10.930000</speed>
</trkpt>
<trkpt lat="22.041544" lon="104.106003">
<ele>320.4</ele>
<time>2011-04-26T09:13:45Z</time>
<desc>lat.=22.041544, lon.=104.106003, Alt.=316.043213m. Speed=42.731998m/h.</desc>
<speed>11.870000</speed>
</trkpt>
<trkpt lat="22.041889" lon="104.107544">
<ele>324.3</ele>
<time>2011-04-26T09:14:00Z</time>
<desc>lat.=22.041889, lon.=104.107544, Alt.=304.527588m. Speed=29.052000m/h.</desc>
<speed>8.070000</speed>
</trkpt>
<trkpt lat="22.042217" lon="104.108192">
<ele>322.5</ele>
<time>2011-04-26T09:14:15Z</time>
<desc>lat.=22.042217, lon.=104.108192, Alt.=298.379150m. Speed=10.188000m/h.</desc>
<speed>2.830000</speed>
</trkpt>
<trkpt lat="22.043098" lon="104.108795">
<ele>322.3</ele>
<time>2011-04-26T09:14:40Z</time>
<desc>lat.=22.043098, lon.=104.108795, Alt.=298.660400m. Speed=11.988000m/h.</desc>
<speed>3.330000</speed>
</trkpt>
<trkpt lat="22.044641" lon="104.109512">
<ele>315.9</ele>
<time>2011-04-26T09:16:30Z</time>
<desc>lat.=22.044641, lon.=104.109512, Alt.=297.316650m. Speed=10.764000m/h.</desc>
<speed>2.990000</speed>
</trkpt>
<trkpt lat="22.045437" lon="104.110519">
<ele>310.0</ele>
<time>2011-04-26T09:17:05Z</time>
<desc>lat.=22.045437, lon.=104.110519, Alt.=296.863525m. Speed=18.792000m/h.</desc>
<speed>5.220000</speed>
</trkpt>
<trkpt lat="22.047266" lon="104.111534">
<ele>293.5</ele>
<time>2011-04-26T09:17:50Z</time>
<desc>lat.=22.047266, lon.=104.111534, Alt.=279.316650m. Speed=31.212000m/h.</desc>
<speed>8.670000</speed>
</trkpt>
<trkpt lat="22.047440" lon="104.111847">
<ele>293.3</ele>
<time>2011-04-26T09:17:55Z</time>
<desc>lat.=22.047440, lon.=104.111847, Alt.=277.441650m. Speed=25.452000m/h.</desc>
<speed>7.070000</speed>
</trkpt>
<trkpt lat="22.047489" lon="104.112747">
<ele>286.7</ele>
<time>2011-04-26T09:18:15Z</time>
<desc>lat.=22.047489, lon.=104.112747, Alt.=274.332275m. Speed=17.496000m/h.</desc>
<speed>4.860000</speed>
</trkpt>
<trkpt lat="22.048483" lon="104.115059">
<ele>266.9</ele>
<time>2011-04-26T09:19:05Z</time>
<desc>lat.=22.048483, lon.=104.115059, Alt.=247.365356m. Speed=4.500000m/h.</desc>
<speed>1.250000</speed>
</trkpt>
<trkpt lat="22.050032" lon="104.118355">
<ele>268.9</ele>
<time>2011-04-26T09:20:25Z</time>
<desc>lat.=22.050032, lon.=104.118355, Alt.=241.873169m. Speed=17.351999m/h.</desc>
<speed>4.820000</speed>
</trkpt>
<trkpt lat="22.050783" lon="104.119339">
<ele>268.8</ele>
<time>2011-04-26T09:20:50Z</time>
<desc>lat.=22.050783, lon.=104.119339, Alt.=246.658325m. Speed=14.436000m/h.</desc>
<speed>4.010000</speed>
</trkpt>
<trkpt lat="22.050655" lon="104.120789">
<ele>267.1</ele>
<time>2011-04-26T09:21:30Z</time>
<desc>lat.=22.050655, lon.=104.120789, Alt.=251.904419m. Speed=6.732000m/h.</desc>
<speed>1.870000</speed>
</trkpt>
<trkpt lat="22.050375" lon="104.121849">
<ele>260.3</ele>
<time>2011-04-26T09:22:40Z</time>
<desc>lat.=22.050375, lon.=104.121849, Alt.=255.420044m. Speed=16.056000m/h.</desc>
<speed>4.460000</speed>
</trkpt>
<trkpt lat="22.050457" lon="104.122734">
<ele>270.3</ele>
<time>2011-04-26T09:23:10Z</time>
<desc>lat.=22.050457, lon.=104.122734, Alt.=253.420044m. Speed=9.900000m/h.</desc>
<speed>2.750000</speed>
</trkpt>
<trkpt lat="22.050169" lon="104.123512">
<ele>274.4</ele>
<time>2011-04-26T09:23:40Z</time>
<desc>lat.=22.050169, lon.=104.123512, Alt.=252.115356m. Speed=4.212000m/h.</desc>
<speed>1.170000</speed>
</trkpt>
<trkpt lat="22.050116" lon="104.125107">
<ele>283.9</ele>
<time>2011-04-26T09:25:20Z</time>
<desc>lat.=22.050116, lon.=104.125107, Alt.=265.738525m. Speed=6.624000m/h.</desc>
<speed>1.840000</speed>
</trkpt>
<trkpt lat="22.049803" lon="104.125893">
<ele>276.4</ele>
<time>2011-04-26T09:29:20Z</time>
<desc>lat.=22.049803, lon.=104.125893, Alt.=270.543213m. Speed=9.288000m/h.</desc>
<speed>2.580000</speed>
</trkpt>
<trkpt lat="22.049953" lon="104.126511">
<ele>273.1</ele>
<time>2011-04-26T09:29:35Z</time>
<desc>lat.=22.049953, lon.=104.126511, Alt.=269.785400m. Speed=15.228000m/h.</desc>
<speed>4.230000</speed>
</trkpt>
<trkpt lat="22.050816" lon="104.128212">
<ele>260.3</ele>
<time>2011-04-26T09:30:10Z</time>
<desc>lat.=22.050816, lon.=104.128212, Alt.=259.152588m. Speed=24.660000m/h.</desc>
<speed>6.850000</speed>
</trkpt>
<trkpt lat="22.051016" lon="104.129509">
<ele>258.2</ele>
<time>2011-04-26T09:30:25Z</time>
<desc>lat.=22.051016, lon.=104.129509, Alt.=250.623169m. Speed=30.348000m/h.</desc>
<speed>8.430000</speed>
</trkpt>
<trkpt lat="22.051365" lon="104.130188">
<ele>253.0</ele>
<time>2011-04-26T09:30:35Z</time>
<desc>lat.=22.051365, lon.=104.130188, Alt.=244.650513m. Speed=20.195999m/h.</desc>
<speed>5.610000</speed>
</trkpt>
<trkpt lat="22.051043" lon="104.131203">
<ele>243.3</ele>
<time>2011-04-26T09:30:50Z</time>
<desc>lat.=22.051043, lon.=104.131203, Alt.=240.654419m. Speed=18.396000m/h.</desc>
<speed>5.110000</speed>
</trkpt>
<trkpt lat="22.051096" lon="104.132103">
<ele>242.7</ele>
<time>2011-04-26T09:31:05Z</time>
<desc>lat.=22.051096, lon.=104.132103, Alt.=235.091919m. Speed=19.403999m/h.</desc>
<speed>5.390000</speed>
</trkpt>
<trkpt lat="22.051317" lon="104.132813">
<ele>248.4</ele>
<time>2011-04-26T09:31:25Z</time>
<desc>lat.=22.051317, lon.=104.132813, Alt.=235.189575m. Speed=10.548000m/h.</desc>
<speed>2.930000</speed>
</trkpt>
<trkpt lat="22.051750" lon="104.133476">
<ele>247.1</ele>
<time>2011-04-26T09:31:55Z</time>
<desc>lat.=22.051750, lon.=104.133476, Alt.=238.412231m. Speed=8.532000m/h.</desc>
<speed>2.370000</speed>
</trkpt>
<trkpt lat="22.052212" lon="104.135529">
<ele>248.6</ele>
<time>2011-04-26T09:33:05Z</time>
<desc>lat.=22.052212, lon.=104.135529, Alt.=232.451294m. Speed=10.944000m/h.</desc>
<speed>3.040000</speed>
</trkpt>
<trkpt lat="22.051704" lon="104.137062">
<ele>247.8</ele>
<time>2011-04-26T09:33:40Z</time>
<desc>lat.=22.051704, lon.=104.137062, Alt.=229.736450m. Speed=14.544000m/h.</desc>
<speed>4.040000</speed>
</trkpt>
<trkpt lat="22.051510" lon="104.138359">
<ele>251.1</ele>
<time>2011-04-26T09:34:10Z</time>
<desc>lat.=22.051510, lon.=104.138359, Alt.=226.791138m. Speed=15.156000m/h.</desc>
<speed>4.210000</speed>
</trkpt>
<trkpt lat="22.052113" lon="104.140091">
<ele>251.4</ele>
<time>2011-04-26T09:34:50Z</time>
<desc>lat.=22.052113, lon.=104.140091, Alt.=228.056763m. Speed=11.196000m/h.</desc>
<speed>3.110000</speed>
</trkpt>
<trkpt lat="22.053186" lon="104.141533">
<ele>252.4</ele>
<time>2011-04-26T09:35:35Z</time>
<desc>lat.=22.053186, lon.=104.141533, Alt.=227.619263m. Speed=9.252000m/h.</desc>
<speed>2.570000</speed>
</trkpt>
<trkpt lat="22.053493" lon="104.141838">
<ele>249.2</ele>
<time>2011-04-26T09:35:45Z</time>
<desc>lat.=22.053493, lon.=104.141838, Alt.=227.494263m. Speed=14.760000m/h.</desc>
<speed>4.100000</speed>
</trkpt>
<trkpt lat="22.054569" lon="104.142296">
<ele>247.1</ele>
<time>2011-04-26T09:36:15Z</time>
<desc>lat.=22.054569, lon.=104.142296, Alt.=231.720825m. Speed=8.460000m/h.</desc>
<speed>2.350000</speed>
</trkpt>
<trkpt lat="22.055426" lon="104.143051">
<ele>250.1</ele>
<time>2011-04-26T09:37:40Z</time>
<desc>lat.=22.055426, lon.=104.143051, Alt.=236.111450m. Speed=3.276000m/h.</desc>
<speed>0.910000</speed>
</trkpt>
<trkpt lat="22.055538" lon="104.143562">
<ele>247.3</ele>
<time>2011-04-26T09:38:35Z</time>
<desc>lat.=22.055538, lon.=104.143562, Alt.=244.173950m. Speed=0.936000m/h.</desc>
<speed>0.260000</speed>
</trkpt>
<trkpt lat="22.055677" lon="104.143600">
<ele>246.5</ele>
<time>2011-04-26T09:40:05Z</time>
<desc>lat.=22.055677, lon.=104.143600, Alt.=244.271606m. Speed=0.252000m/h.</desc>
<speed>0.070000</speed>
</trkpt>
<trkpt lat="22.055548" lon="104.143570">
<ele>247.2</ele>
<time>2011-04-26T10:02:45Z</time>
<desc>lat.=22.055548, lon.=104.143570, Alt.=245.154419m. Speed=0.252000m/h.</desc>
<speed>0.070000</speed>
</trkpt>
<trkpt lat="22.055218" lon="104.145370">
<ele>241.3</ele>
<time>2011-04-26T10:04:45Z</time>
<desc>lat.=22.055218, lon.=104.145370, Alt.=237.052856m. Speed=21.959999m/h.</desc>
<speed>6.100000</speed>
</trkpt>
<trkpt lat="22.055775" lon="104.147202">
<ele>236.6</ele>
<time>2011-04-26T10:05:45Z</time>
<desc>lat.=22.055775, lon.=104.147202, Alt.=222.646606m. Speed=13.500000m/h.</desc>
<speed>3.750000</speed>
</trkpt>
<trkpt lat="22.057135" lon="104.148460">
<ele>231.4</ele>
<time>2011-04-26T10:06:15Z</time>
<desc>lat.=22.057135, lon.=104.148460, Alt.=217.838013m. Speed=22.752001m/h.</desc>
<speed>6.320000</speed>
</trkpt>
<trkpt lat="22.058964" lon="104.149292">
<ele>235.0</ele>
<time>2011-04-26T10:06:55Z</time>
<desc>lat.=22.058964, lon.=104.149292, Alt.=215.849731m. Speed=17.028000m/h.</desc>
<speed>4.730000</speed>
</trkpt>
<trkpt lat="22.059296" lon="104.149605">
<ele>233.6</ele>
<time>2011-04-26T10:07:05Z</time>
<desc>lat.=22.059296, lon.=104.149605, Alt.=214.869263m. Speed=18.936001m/h.</desc>
<speed>5.260000</speed>
</trkpt>
<trkpt lat="22.059340" lon="104.150826">
<ele>230.1</ele>
<time>2011-04-26T10:07:30Z</time>
<desc>lat.=22.059340, lon.=104.150826, Alt.=216.025513m. Speed=16.848000m/h.</desc>
<speed>4.680000</speed>
</trkpt>
<trkpt lat="22.058182" lon="104.152428">
<ele>231.2</ele>
<time>2011-04-26T10:08:10Z</time>
<desc>lat.=22.058182, lon.=104.152428, Alt.=214.498169m. Speed=16.559999m/h.</desc>
<speed>4.600000</speed>
</trkpt>
<trkpt lat="22.058031" lon="104.153145">
<ele>236.8</ele>
<time>2011-04-26T10:08:25Z</time>
<desc>lat.=22.058031, lon.=104.153145, Alt.=218.291138m. Speed=17.639999m/h.</desc>
<speed>4.900000</speed>
</trkpt>
<trkpt lat="22.058168" lon="104.153610">
<ele>242.6</ele>
<time>2011-04-26T10:08:35Z</time>
<desc>lat.=22.058168, lon.=104.153610, Alt.=219.025513m. Speed=14.436000m/h.</desc>
<speed>4.010000</speed>
</trkpt>
<trkpt lat="22.059776" lon="104.155212">
<ele>243.3</ele>
<time>2011-04-26T10:09:35Z</time>
<desc>lat.=22.059776, lon.=104.155212, Alt.=218.420044m. Speed=12.708000m/h.</desc>
<speed>3.530000</speed>
</trkpt>
<trkpt lat="22.060364" lon="104.156029">
<ele>254.7</ele>
<time>2011-04-26T10:10:15Z</time>
<desc>lat.=22.060364, lon.=104.156029, Alt.=219.533325m. Speed=7.020000m/h.</desc>
<speed>1.950000</speed>
</trkpt>
<trkpt lat="22.060953" lon="104.156334">
<ele>246.9</ele>
<time>2011-04-26T10:10:35Z</time>
<desc>lat.=22.060953, lon.=104.156334, Alt.=217.716919m. Speed=12.492000m/h.</desc>
<speed>3.470000</speed>
</trkpt>
<trkpt lat="22.062313" lon="104.156197">
<ele>242.3</ele>
<time>2011-04-26T10:11:00Z</time>
<desc>lat.=22.062313, lon.=104.156197, Alt.=213.552856m. Speed=21.600000m/h.</desc>
<speed>6.000000</speed>
</trkpt>
<trkpt lat="22.064407" lon="104.156708">
<ele>244.0</ele>
<time>2011-04-26T10:12:25Z</time>
<desc>lat.=22.064407, lon.=104.156708, Alt.=225.498169m. Speed=19.152000m/h.</desc>
<speed>5.320000</speed>
</trkpt>
<trkpt lat="22.065783" lon="104.158096">
<ele>249.7</ele>
<time>2011-04-26T10:13:00Z</time>
<desc>lat.=22.065783, lon.=104.158096, Alt.=226.814575m. Speed=23.832001m/h.</desc>
<speed>6.620000</speed>
</trkpt>
<trkpt lat="22.067539" lon="104.159218">
<ele>250.1</ele>
<time>2011-04-26T10:13:45Z</time>
<desc>lat.=22.067539, lon.=104.159218, Alt.=225.869263m. Speed=23.760000m/h.</desc>
<speed>6.600000</speed>
</trkpt>
<trkpt lat="22.069239" lon="104.160683">
<ele>233.4</ele>
<time>2011-04-26T10:14:15Z</time>
<desc>lat.=22.069239, lon.=104.160683, Alt.=212.068481m. Speed=16.056000m/h.</desc>
<speed>4.460000</speed>
</trkpt>
<trkpt lat="22.070053" lon="104.160973">
<ele>248.3</ele>
<time>2011-04-26T10:14:40Z</time>
<desc>lat.=22.070053, lon.=104.160973, Alt.=216.877075m. Speed=7.596000m/h.</desc>
<speed>2.110000</speed>
</trkpt>
<trkpt lat="22.070814" lon="104.161034">
<ele>252.0</ele>
<time>2011-04-26T10:15:05Z</time>
<desc>lat.=22.070814, lon.=104.161034, Alt.=216.580200m. Speed=14.148000m/h.</desc>
<speed>3.930000</speed>
</trkpt>
<trkpt lat="22.073957" lon="104.161018">
<ele>238.9</ele>
<time>2011-04-26T10:16:15Z</time>
<desc>lat.=22.073957, lon.=104.161018, Alt.=205.744263m. Speed=11.412000m/h.</desc>
<speed>3.170000</speed>
</trkpt>
<trkpt lat="22.074467" lon="104.161438">
<ele>244.1</ele>
<time>2011-04-26T10:16:30Z</time>
<desc>lat.=22.074467, lon.=104.161438, Alt.=199.779419m. Speed=17.280001m/h.</desc>
<speed>4.800000</speed>
</trkpt>
<trkpt lat="22.075832" lon="104.163582">
<ele>240.5</ele>
<time>2011-04-26T10:17:20Z</time>
<desc>lat.=22.075832, lon.=104.163582, Alt.=191.802856m. Speed=15.480000m/h.</desc>
<speed>4.300000</speed>
</trkpt>
<trkpt lat="22.076265" lon="104.164772">
<ele>239.1</ele>
<time>2011-04-26T10:17:45Z</time>
<desc>lat.=22.076265, lon.=104.164772, Alt.=197.197388m. Speed=19.403999m/h.</desc>
<speed>5.390000</speed>
</trkpt>
<trkpt lat="22.076555" lon="104.166229">
<ele>247.4</ele>
<time>2011-04-26T10:18:10Z</time>
<desc>lat.=22.076555, lon.=104.166229, Alt.=200.888794m. Speed=24.191999m/h.</desc>
<speed>6.720000</speed>
</trkpt>
<trkpt lat="22.078260" lon="104.169754">
<ele>232.6</ele>
<time>2011-04-26T10:19:20Z</time>
<desc>lat.=22.078260, lon.=104.169754, Alt.=208.873169m. Speed=24.624001m/h.</desc>
<speed>6.840000</speed>
</trkpt>
<trkpt lat="22.079170" lon="104.172241">
<ele>239.9</ele>
<time>2011-04-26T10:20:10Z</time>
<desc>lat.=22.079170, lon.=104.172241, Alt.=210.795044m. Speed=20.304001m/h.</desc>
<speed>5.640000</speed>
</trkpt>
<trkpt lat="22.079601" lon="104.172806">
<ele>248.2</ele>
<time>2011-04-26T10:20:25Z</time>
<desc>lat.=22.079601, lon.=104.172806, Alt.=212.502075m. Speed=16.632000m/h.</desc>
<speed>4.620000</speed>
</trkpt>
<trkpt lat="22.079996" lon="104.173874">
<ele>241.7</ele>
<time>2011-04-26T10:20:40Z</time>
<desc>lat.=22.079996, lon.=104.173874, Alt.=209.705200m. Speed=21.959999m/h.</desc>
<speed>6.100000</speed>
</trkpt>
<trkpt lat="22.081108" lon="104.175468">
<ele>250.1</ele>
<time>2011-04-26T10:21:55Z</time>
<desc>lat.=22.081108, lon.=104.175468, Alt.=235.037231m. Speed=9.900000m/h.</desc>
<speed>2.750000</speed>
</trkpt>
<trkpt lat="22.081858" lon="104.178719">
<ele>257.5</ele>
<time>2011-04-26T10:22:35Z</time>
<desc>lat.=22.081858, lon.=104.178719, Alt.=213.115356m. Speed=30.455999m/h.</desc>
<speed>8.460000</speed>
</trkpt>
<trkpt lat="22.082449" lon="104.179253">
<ele>258.4</ele>
<time>2011-04-26T10:22:50Z</time>
<desc>lat.=22.082449, lon.=104.179253, Alt.=211.986450m. Speed=18.288000m/h.</desc>
<speed>5.080000</speed>
</trkpt>
<trkpt lat="22.082903" lon="104.179977">
<ele>254.8</ele>
<time>2011-04-26T10:23:05Z</time>
<desc>lat.=22.082903, lon.=104.179977, Alt.=210.806763m. Speed=12.312000m/h.</desc>
<speed>3.420000</speed>
</trkpt>
<trkpt lat="22.083954" lon="104.182190">
<ele>248.0</ele>
<time>2011-04-26T10:24:10Z</time>
<desc>lat.=22.083954, lon.=104.182190, Alt.=209.017700m. Speed=18.756001m/h.</desc>
<speed>5.210000</speed>
</trkpt>
<trkpt lat="22.083998" lon="104.182838">
<ele>233.8</ele>
<time>2011-04-26T10:24:20Z</time>
<desc>lat.=22.083998, lon.=104.182838, Alt.=207.326294m. Speed=26.604000m/h.</desc>
<speed>7.390000</speed>
</trkpt>
<trkpt lat="22.083540" lon="104.183571">
<ele>235.3</ele>
<time>2011-04-26T10:24:30Z</time>
<desc>lat.=22.083540, lon.=104.183571, Alt.=204.240356m. Speed=31.356001m/h.</desc>
<speed>8.710000</speed>
</trkpt>
<trkpt lat="22.083504" lon="104.184212">
<ele>227.5</ele>
<time>2011-04-26T10:24:35Z</time>
<desc>lat.=22.083504, lon.=104.184212, Alt.=207.213013m. Speed=37.584000m/h.</desc>
<speed>10.440000</speed>
</trkpt>
<trkpt lat="22.083937" lon="104.186409">
<ele>228.9</ele>
<time>2011-04-26T10:25:10Z</time>
<desc>lat.=22.083937, lon.=104.186409, Alt.=212.048950m. Speed=20.124001m/h.</desc>
<speed>5.590000</speed>
</trkpt>
<trkpt lat="22.084232" lon="104.187492">
<ele>234.7</ele>
<time>2011-04-26T10:25:30Z</time>
<desc>lat.=22.084232, lon.=104.187492, Alt.=216.861450m. Speed=14.688000m/h.</desc>
<speed>4.080000</speed>
</trkpt>
<trkpt lat="22.085625" lon="104.190285">
<ele>228.9</ele>
<time>2011-04-26T10:26:25Z</time>
<desc>lat.=22.085625, lon.=104.190285, Alt.=216.865356m. Speed=22.392000m/h.</desc>
<speed>6.220000</speed>
</trkpt>
<trkpt lat="22.086416" lon="104.192642">
<ele>230.1</ele>
<time>2011-04-26T10:27:05Z</time>
<desc>lat.=22.086416, lon.=104.192642, Alt.=212.814575m. Speed=20.483999m/h.</desc>
<speed>5.690000</speed>
</trkpt>
<trkpt lat="22.087404" lon="104.193428">
<ele>218.8</ele>
<time>2011-04-26T10:27:25Z</time>
<desc>lat.=22.087404, lon.=104.193428, Alt.=218.255981m. Speed=23.688000m/h.</desc>
<speed>6.580000</speed>
</trkpt>
<trkpt lat="22.088078" lon="104.194283">
<ele>224.5</ele>
<time>2011-04-26T10:27:40Z</time>
<desc>lat.=22.088078, lon.=104.194283, Alt.=221.322388m. Speed=26.063999m/h.</desc>
<speed>7.240000</speed>
</trkpt>
<trkpt lat="22.088961" lon="104.194946">
<ele>253.9</ele>
<time>2011-04-26T10:28:00Z</time>
<desc>lat.=22.088961, lon.=104.194946, Alt.=223.857544m. Speed=19.296000m/h.</desc>
<speed>5.360000</speed>
</trkpt>
<trkpt lat="22.090784" lon="104.195854">
<ele>233.4</ele>
<time>2011-04-26T10:28:40Z</time>
<desc>lat.=22.090784, lon.=104.195854, Alt.=218.896606m. Speed=8.892000m/h.</desc>
<speed>2.470000</speed>
</trkpt>
<trkpt lat="22.091576" lon="104.197220">
<ele>222.3</ele>
<time>2011-04-26T10:29:10Z</time>
<desc>lat.=22.091576, lon.=104.197220, Alt.=209.107544m. Speed=13.896000m/h.</desc>
<speed>3.860000</speed>
</trkpt>
<trkpt lat="22.091616" lon="104.198074">
<ele>225.3</ele>
<time>2011-04-26T10:29:30Z</time>
<desc>lat.=22.091616, lon.=104.198074, Alt.=209.232544m. Speed=16.020000m/h.</desc>
<speed>4.450000</speed>
</trkpt>
<trkpt lat="22.090740" lon="104.199837">
<ele>228.0</ele>
<time>2011-04-26T10:30:10Z</time>
<desc>lat.=22.090740, lon.=104.199837, Alt.=216.470825m. Speed=18.323999m/h.</desc>
<speed>5.090000</speed>
</trkpt>
<trkpt lat="22.090322" lon="104.203491">
<ele>219.0</ele>
<time>2011-04-26T10:31:30Z</time>
<desc>lat.=22.090322, lon.=104.203491, Alt.=220.482544m. Speed=5.724000m/h.</desc>
<speed>1.590000</speed>
</trkpt>
<trkpt lat="22.089918" lon="104.205101">
<ele>219.9</ele>
<time>2011-04-26T10:32:10Z</time>
<desc>lat.=22.089918, lon.=104.205101, Alt.=219.595825m. Speed=13.968000m/h.</desc>
<speed>3.880000</speed>
</trkpt>
<trkpt lat="22.089186" lon="104.207047">
<ele>218.0</ele>
<time>2011-04-26T10:32:45Z</time>
<desc>lat.=22.089186, lon.=104.207047, Alt.=214.900513m. Speed=20.087999m/h.</desc>
<speed>5.580000</speed>
</trkpt>
<trkpt lat="22.088320" lon="104.208656">
<ele>224.3</ele>
<time>2011-04-26T10:33:40Z</time>
<desc>lat.=22.088320, lon.=104.208656, Alt.=226.693481m. Speed=6.732000m/h.</desc>
<speed>1.870000</speed>
</trkpt>
<trkpt lat="22.085625" lon="104.211365">
<ele>253.6</ele>
<time>2011-04-26T10:36:55Z</time>
<desc>lat.=22.085625, lon.=104.211365, Alt.=234.431763m. Speed=4.968000m/h.</desc>
<speed>1.380000</speed>
</trkpt>
<trkpt lat="22.084980" lon="104.212479">
<ele>282.5</ele>
<time>2011-04-26T10:38:15Z</time>
<desc>lat.=22.084980, lon.=104.212479, Alt.=243.494263m. Speed=4.104000m/h.</desc>
<speed>1.140000</speed>
</trkpt>
<trkpt lat="22.084902" lon="104.213692">
<ele>260.9</ele>
<time>2011-04-26T10:44:35Z</time>
<desc>lat.=22.084902, lon.=104.213692, Alt.=256.066650m. Speed=22.139999m/h.</desc>
<speed>6.150000</speed>
</trkpt>
<trkpt lat="22.084515" lon="104.214455">
<ele>257.9</ele>
<time>2011-04-26T10:44:45Z</time>
<desc>lat.=22.084515, lon.=104.214455, Alt.=251.713013m. Speed=39.779999m/h.</desc>
<speed>11.050000</speed>
</trkpt>
<trkpt lat="22.083023" lon="104.215767">
<ele>248.9</ele>
<time>2011-04-26T10:45:05Z</time>
<desc>lat.=22.083023, lon.=104.215767, Alt.=243.670044m. Speed=34.056000m/h.</desc>
<speed>9.460000</speed>
</trkpt>
<trkpt lat="22.082577" lon="104.216492">
<ele>237.7</ele>
<time>2011-04-26T10:45:15Z</time>
<desc>lat.=22.082577, lon.=104.216492, Alt.=239.123169m. Speed=29.016001m/h.</desc>
<speed>8.060000</speed>
</trkpt>
<trkpt lat="22.083302" lon="104.218369">
<ele>225.0</ele>
<time>2011-04-26T10:45:40Z</time>
<desc>lat.=22.083302, lon.=104.218369, Alt.=225.021606m. Speed=35.568001m/h.</desc>
<speed>9.880000</speed>
</trkpt>
<trkpt lat="22.084116" lon="104.219147">
<ele>217.0</ele>
<time>2011-04-26T10:45:50Z</time>
<desc>lat.=22.084116, lon.=104.219147, Alt.=216.670044m. Speed=44.316002m/h.</desc>
<speed>12.310001</speed>
</trkpt>
<trkpt lat="22.084528" lon="104.220032">
<ele>218.1</ele>
<time>2011-04-26T10:46:00Z</time>
<desc>lat.=22.084528, lon.=104.220032, Alt.=217.627075m. Speed=26.639999m/h.</desc>
<speed>7.400000</speed>
</trkpt>
<trkpt lat="22.085787" lon="104.225067">
<ele>213.5</ele>
<time>2011-04-26T10:47:55Z</time>
<desc>lat.=22.085787, lon.=104.225067, Alt.=216.005981m. Speed=27.972000m/h.</desc>
<speed>7.770000</speed>
</trkpt>
<trkpt lat="22.086811" lon="104.225983">
<ele>216.1</ele>
<time>2011-04-26T10:48:15Z</time>
<desc>lat.=22.086811, lon.=104.225983, Alt.=207.548950m. Speed=26.604000m/h.</desc>
<speed>7.390000</speed>
</trkpt>
<trkpt lat="22.087122" lon="104.226608">
<ele>210.6</ele>
<time>2011-04-26T10:48:25Z</time>
<desc>lat.=22.087122, lon.=104.226608, Alt.=206.588013m. Speed=21.780001m/h.</desc>
<speed>6.050000</speed>
</trkpt>
<trkpt lat="22.087275" lon="104.227692">
<ele>216.7</ele>
<time>2011-04-26T10:48:50Z</time>
<desc>lat.=22.087275, lon.=104.227692, Alt.=210.283325m. Speed=12.492000m/h.</desc>
<speed>3.470000</speed>
</trkpt>
<trkpt lat="22.086899" lon="104.228622">
<ele>218.0</ele>
<time>2011-04-26T10:49:25Z</time>
<desc>lat.=22.086899, lon.=104.228622, Alt.=219.880981m. Speed=5.976000m/h.</desc>
<speed>1.660000</speed>
</trkpt>
<trkpt lat="22.086733" lon="104.230408">
<ele>227.2</ele>
<time>2011-04-26T10:50:40Z</time>
<desc>lat.=22.086733, lon.=104.230408, Alt.=229.545044m. Speed=6.156000m/h.</desc>
<speed>1.710000</speed>
</trkpt>
<trkpt lat="22.087734" lon="104.231819">
<ele>229.8</ele>
<time>2011-04-26T10:51:35Z</time>
<desc>lat.=22.087734, lon.=104.231819, Alt.=223.720825m. Speed=20.268000m/h.</desc>
<speed>5.630000</speed>
</trkpt>
<trkpt lat="22.088186" lon="104.232780">
<ele>221.8</ele>
<time>2011-04-26T10:51:50Z</time>
<desc>lat.=22.088186, lon.=104.232780, Alt.=221.537231m. Speed=33.768002m/h.</desc>
<speed>9.380000</speed>
</trkpt>
<trkpt lat="22.088209" lon="104.234482">
<ele>211.6</ele>
<time>2011-04-26T10:52:05Z</time>
<desc>lat.=22.088209, lon.=104.234482, Alt.=217.505981m. Speed=35.964001m/h.</desc>
<speed>9.990000</speed>
</trkpt>
<trkpt lat="22.089140" lon="104.235275">
<ele>209.0</ele>
<time>2011-04-26T10:52:20Z</time>
<desc>lat.=22.089140, lon.=104.235275, Alt.=210.513794m. Speed=32.363998m/h.</desc>
<speed>8.990000</speed>
</trkpt>
<trkpt lat="22.089897" lon="104.240044">
<ele>200.7</ele>
<time>2011-04-26T10:53:45Z</time>
<desc>lat.=22.089897, lon.=104.240044, Alt.=205.732544m. Speed=20.448000m/h.</desc>
<speed>5.680000</speed>
</trkpt>
<trkpt lat="22.088430" lon="104.243584">
<ele>197.4</ele>
<time>2011-04-26T10:54:55Z</time>
<desc>lat.=22.088430, lon.=104.243584, Alt.=225.943481m. Speed=8.784000m/h.</desc>
<speed>2.440000</speed>
</trkpt>
<trkpt lat="22.088230" lon="104.244576">
<ele>200.5</ele>
<time>2011-04-26T10:56:20Z</time>
<desc>lat.=22.088230, lon.=104.244576, Alt.=221.201294m. Speed=0.180000m/h.</desc>
<speed>0.050000</speed>
</trkpt>
<trkpt lat="22.088287" lon="104.245789">
<ele>198.2</ele>
<time>2011-04-26T10:57:40Z</time>
<desc>lat.=22.088287, lon.=104.245789, Alt.=202.209106m. Speed=13.932000m/h.</desc>
<speed>3.870000</speed>
</trkpt>
<trkpt lat="22.089491" lon="104.250206">
<ele>207.3</ele>
<time>2011-04-26T11:00:30Z</time>
<desc>lat.=22.089491, lon.=104.250206, Alt.=203.845825m. Speed=9.360000m/h.</desc>
<speed>2.600000</speed>
</trkpt>
<trkpt lat="22.089510" lon="104.252205">
<ele>202.4</ele>
<time>2011-04-26T11:01:45Z</time>
<desc>lat.=22.089510, lon.=104.252205, Alt.=210.017700m. Speed=12.384000m/h.</desc>
<speed>3.440000</speed>
</trkpt>
<trkpt lat="22.089420" lon="104.252411">
<ele>201.9</ele>
<time>2011-04-26T11:01:55Z</time>
<desc>lat.=22.089420, lon.=104.252411, Alt.=208.630981m. Speed=6.768000m/h.</desc>
<speed>1.880000</speed>
</trkpt>
<trkpt lat="22.088682" lon="104.252083">
<ele>200.7</ele>
<time>2011-04-26T11:03:10Z</time>
<desc>lat.=22.088682, lon.=104.252083, Alt.=203.119263m. Speed=5.508000m/h.</desc>
<speed>1.530000</speed>
</trkpt>
<trkpt lat="22.088409" lon="104.252312">
<ele>202.1</ele>
<time>2011-04-26T11:03:25Z</time>
<desc>lat.=22.088409, lon.=104.252312, Alt.=205.306763m. Speed=6.840000m/h.</desc>
<speed>1.900000</speed>
</trkpt>
<trkpt lat="22.087841" lon="104.253860">
<ele>197.6</ele>
<time>2011-04-26T11:05:00Z</time>
<desc>lat.=22.087841, lon.=104.253860, Alt.=203.994263m. Speed=0.432000m/h.</desc>
<speed>0.120000</speed>
</trkpt>
<trkpt lat="22.087847" lon="104.253670">
<ele>199.3</ele>
<time>2011-04-26T11:06:20Z</time>
<desc>lat.=22.087847, lon.=104.253670, Alt.=211.138794m. Speed=1.872000m/h.</desc>
<speed>0.520000</speed>
</trkpt>
<trkpt lat="22.087969" lon="104.253860">
<ele>198.2</ele>
<time>2011-04-26T11:07:25Z</time>
<desc>lat.=22.087969, lon.=104.253860, Alt.=213.931763m. Speed=1.368000m/h.</desc>
<speed>0.380000</speed>
</trkpt>
<trkpt lat="22.087709" lon="104.253769">
<ele>197.5</ele>
<time>2011-04-26T11:10:40Z</time>
<desc>lat.=22.087709, lon.=104.253769, Alt.=224.166138m. Speed=2.772000m/h.</desc>
<speed>0.770000</speed>
</trkpt>
<trkpt lat="22.088005" lon="104.253830">
<ele>198.3</ele>
<time>2011-04-26T11:11:20Z</time>
<desc>lat.=22.088005, lon.=104.253830, Alt.=225.107544m. Speed=2.880000m/h.</desc>
<speed>0.800000</speed>
</trkpt>
<trkpt lat="22.087961" lon="104.253670">
<ele>199.5</ele>
<time>2011-04-26T11:11:55Z</time>
<desc>lat.=22.087961, lon.=104.253670, Alt.=228.662231m. Speed=0.900000m/h.</desc>
<speed>0.250000</speed>
</trkpt>
<trkpt lat="22.087885" lon="104.253830">
<ele>198.2</ele>
<time>2011-04-26T11:12:50Z</time>
<desc>lat.=22.087885, lon.=104.253830, Alt.=225.486450m. Speed=0.288000m/h.</desc>
<speed>0.080000</speed>
</trkpt>
<trkpt lat="22.087885" lon="104.253677">
<ele>199.5</ele>
<time>2011-04-26T11:13:20Z</time>
<desc>lat.=22.087885, lon.=104.253677, Alt.=225.076294m. Speed=1.764000m/h.</desc>
<speed>0.490000</speed>
</trkpt>
<trkpt lat="22.087715" lon="104.253883">
<ele>196.4</ele>
<time>2011-04-26T11:18:40Z</time>
<desc>lat.=22.087715, lon.=104.253883, Alt.=226.263794m. Speed=0.936000m/h.</desc>
<speed>0.260000</speed>
</trkpt>
<trkpt lat="22.087898" lon="104.253822">
<ele>198.4</ele>
<time>2011-04-26T11:20:40Z</time>
<desc>lat.=22.087898, lon.=104.253822, Alt.=226.279419m. Speed=1.152000m/h.</desc>
<speed>0.320000</speed>
</trkpt>
<trkpt lat="22.087791" lon="104.253891">
<ele>196.9</ele>
<time>2011-04-26T11:22:40Z</time>
<desc>lat.=22.087791, lon.=104.253891, Alt.=223.795044m. Speed=2.880000m/h.</desc>
<speed>0.800000</speed>
</trkpt>
<trkpt lat="22.087715" lon="104.253693">
<ele>198.4</ele>
<time>2011-04-26T11:23:20Z</time>
<desc>lat.=22.087715, lon.=104.253693, Alt.=222.111450m. Speed=3.852000m/h.</desc>
<speed>1.070000</speed>
</trkpt>
<trkpt lat="22.087940" lon="104.253860">
<ele>198.2</ele>
<time>2011-04-26T11:24:55Z</time>
<desc>lat.=22.087940, lon.=104.253860, Alt.=217.920044m. Speed=2.016000m/h.</desc>
<speed>0.560000</speed>
</trkpt>
<trkpt lat="22.087723" lon="104.253891">
<ele>196.4</ele>
<time>2011-04-26T11:26:35Z</time>
<desc>lat.=22.087723, lon.=104.253891, Alt.=220.314575m. Speed=0.432000m/h.</desc>
<speed>0.120000</speed>
</trkpt>
<trkpt lat="22.087851" lon="104.253860">
<ele>197.7</ele>
<time>2011-04-26T11:30:50Z</time>
<desc>lat.=22.087851, lon.=104.253860, Alt.=216.420044m. Speed=0.648000m/h.</desc>
<speed>0.180000</speed>
</trkpt>
</trkseg>
</trk>
</gpx>